<?xml version="1.0" encoding="UTF-8" standalone="yes"?>
<gpx xmlns="http://www.topografix.com/GPX/1/1" creator="www.gps-tour.info" version="1.1" xmlns:xsi="http://www.w3.org/2001/XMLSchema-instance" xsi:schemaLocation="http://www.topografix.com/GPX/1/1 http://www.topografix.com/GPX/1/1/gpx.xsd">
  <metadata>
    <name>Über die Krunkelbachhütte und das Herzogenhorn</name>
    <author>
      <name>Jürgen Meißner</name>
    </author>
    <link href="www.gps-tour.info/de/touren/detail.68670.html">
      <text>Über die Krunkelbachhütte und das Herzogenhorn on www.gps-tour.info</text>
    </link>
    <time>2011-04-24T21:46:40Z</time>
    <bounds minlat="47.8064392135" minlon="8.00887570716" maxlat="47.8393143788" maxlon="8.03529119119"/>
  </metadata><wpt lat="47.8353624791" lon="8.01931913942">
    <ele>1415.2</ele>
    <name>Herzogenhorn</name>
    <sym>Waypoint</sym>
  </wpt><wpt lat="47.8289499041" lon="8.03128464147">
    <ele>1259</ele>
    <name>Krunkelbachhütte</name>
    <sym>Waypoint</sym>
  </wpt><wpt lat="47.8064804524" lon="8.0298780743">
    <ele>904</ele>
    <name>Start</name>
    <sym>Waypoint</sym>
  </wpt><wpt lat="47.8064803686" lon="8.02987799048">
    <ele>904</ele>
    <name>Ziel</name>
    <sym>Waypoint</sym>
  </wpt><trk>
    <name>Über die Krunkelbachhütte und das Herzogenhorn</name>
    <trkseg><trkpt lat="47.8064534627" lon="8.02989366464">
        <ele>905.7</ele>
        <time>2011-04-24T21:46:40Z</time>
      </trkpt><trkpt lat="47.8064706456" lon="8.02990305237">
        <ele>905.7</ele>
        <time>2011-04-24T21:46:42Z</time>
      </trkpt><trkpt lat="47.8064839728" lon="8.02995543927">
        <ele>905.7</ele>
        <time>2011-04-24T21:46:46Z</time>
      </trkpt><trkpt lat="47.8065425623" lon="8.03003917448">
        <ele>905.2</ele>
        <time>2011-04-24T21:46:57Z</time>
      </trkpt><trkpt lat="47.8065505251" lon="8.03008611314">
        <ele>905.2</ele>
        <time>2011-04-24T21:47:01Z</time>
      </trkpt><trkpt lat="47.8065671213" lon="8.03032399155">
        <ele>904.3</ele>
        <time>2011-04-24T21:47:21Z</time>
      </trkpt><trkpt lat="47.8065807" lon="8.03035609424">
        <ele>904.7</ele>
        <time>2011-04-24T21:47:24Z</time>
      </trkpt><trkpt lat="47.8067276347" lon="8.03050336428">
        <ele>904.3</ele>
        <time>2011-04-24T21:47:46Z</time>
      </trkpt><trkpt lat="47.8067624196" lon="8.03051216528">
        <ele>904.3</ele>
        <time>2011-04-24T21:47:50Z</time>
      </trkpt><trkpt lat="47.8069222625" lon="8.03062599152">
        <ele>904.3</ele>
        <time>2011-04-24T21:48:12Z</time>
      </trkpt><trkpt lat="47.8070940077" lon="8.03072179668">
        <ele>904.7</ele>
        <time>2011-04-24T21:48:35Z</time>
      </trkpt><trkpt lat="47.8073033877" lon="8.03079714999">
        <ele>905.2</ele>
        <time>2011-04-24T21:49:02Z</time>
      </trkpt><trkpt lat="47.8075713571" lon="8.03084031679">
        <ele>906.2</ele>
        <time>2011-04-24T21:49:36Z</time>
      </trkpt><trkpt lat="47.8077797312" lon="8.03092262708">
        <ele>907.1</ele>
        <time>2011-04-24T21:50:02Z</time>
      </trkpt><trkpt lat="47.8079798911" lon="8.0309099704">
        <ele>907.6</ele>
        <time>2011-04-24T21:50:27Z</time>
      </trkpt><trkpt lat="47.8081927914" lon="8.03098741919">
        <ele>909.5</ele>
        <time>2011-04-24T21:50:55Z</time>
      </trkpt><trkpt lat="47.8082326893" lon="8.03099722601">
        <ele>909.5</ele>
        <time>2011-04-24T21:51:00Z</time>
      </trkpt><trkpt lat="47.8083443362" lon="8.03107207641">
        <ele>911</ele>
        <time>2011-04-24T21:51:15Z</time>
      </trkpt><trkpt lat="47.8085263912" lon="8.03112563677">
        <ele>911.9</ele>
        <time>2011-04-24T21:51:38Z</time>
      </trkpt><trkpt lat="47.8087237012" lon="8.03120333701">
        <ele>912.9</ele>
        <time>2011-04-24T21:52:04Z</time>
      </trkpt><trkpt lat="47.8088984638" lon="8.03130961955">
        <ele>914.4</ele>
        <time>2011-04-24T21:52:27Z</time>
      </trkpt><trkpt lat="47.8091250267" lon="8.03150558844">
        <ele>915.3</ele>
        <time>2011-04-24T21:53:00Z</time>
      </trkpt><trkpt lat="47.8093122784" lon="8.0316542834">
        <ele>915.8</ele>
        <time>2011-04-24T21:53:26Z</time>
      </trkpt><trkpt lat="47.8093510028" lon="8.03173609078">
        <ele>916.3</ele>
        <time>2011-04-24T21:53:35Z</time>
      </trkpt><trkpt lat="47.8093382623" lon="8.03180742078">
        <ele>916.3</ele>
        <time>2011-04-24T21:53:41Z</time>
      </trkpt><trkpt lat="47.8093372565" lon="8.03192208521">
        <ele>916.3</ele>
        <time>2011-04-24T21:53:50Z</time>
      </trkpt><trkpt lat="47.8093574569" lon="8.0320250988">
        <ele>916.8</ele>
        <time>2011-04-24T21:53:59Z</time>
      </trkpt><trkpt lat="47.809355529" lon="8.03207647987">
        <ele>916.8</ele>
        <time>2011-04-24T21:54:04Z</time>
      </trkpt><trkpt lat="47.8093764" lon="8.03211201914">
        <ele>916.8</ele>
        <time>2011-04-24T21:54:08Z</time>
      </trkpt><trkpt lat="47.8094131127" lon="8.03230052814">
        <ele>917.7</ele>
        <time>2011-04-24T21:54:24Z</time>
      </trkpt><trkpt lat="47.8093990311" lon="8.03242835216">
        <ele>917.7</ele>
        <time>2011-04-24T21:54:35Z</time>
      </trkpt><trkpt lat="47.8094474785" lon="8.03245483898">
        <ele>918.2</ele>
        <time>2011-04-24T21:54:41Z</time>
      </trkpt><trkpt lat="47.8095935751" lon="8.03267369047">
        <ele>919.6</ele>
        <time>2011-04-24T21:55:07Z</time>
      </trkpt><trkpt lat="47.8096152004" lon="8.03279262967">
        <ele>920.1</ele>
        <time>2011-04-24T21:55:17Z</time>
      </trkpt><trkpt lat="47.8096960858" lon="8.0328905303">
        <ele>921.1</ele>
        <time>2011-04-24T21:55:30Z</time>
      </trkpt><trkpt lat="47.8098089062" lon="8.03295188583">
        <ele>922.5</ele>
        <time>2011-04-24T21:55:45Z</time>
      </trkpt><trkpt lat="47.8099441063" lon="8.03297711536">
        <ele>924.4</ele>
        <time>2011-04-24T21:56:02Z</time>
      </trkpt><trkpt lat="47.810086431" lon="8.03301902488">
        <ele>925.4</ele>
        <time>2011-04-24T21:56:20Z</time>
      </trkpt><trkpt lat="47.8101804759" lon="8.03304760717">
        <ele>926.4</ele>
        <time>2011-04-24T21:56:32Z</time>
      </trkpt><trkpt lat="47.8103261534" lon="8.0331455078">
        <ele>928.3</ele>
        <time>2011-04-24T21:56:52Z</time>
      </trkpt><trkpt lat="47.8104285803" lon="8.03319864906">
        <ele>929.3</ele>
        <time>2011-04-24T21:57:06Z</time>
      </trkpt><trkpt lat="47.8104886785" lon="8.03316956386">
        <ele>929.7</ele>
        <time>2011-04-24T21:57:14Z</time>
      </trkpt><trkpt lat="47.8105737548" lon="8.0331226252">
        <ele>930.2</ele>
        <time>2011-04-24T21:57:25Z</time>
      </trkpt><trkpt lat="47.8107529599" lon="8.03299991414">
        <ele>930.2</ele>
        <time>2011-04-24T21:57:49Z</time>
      </trkpt><trkpt lat="47.8107708134" lon="8.03297208622">
        <ele>930.2</ele>
        <time>2011-04-24T21:57:53Z</time>
      </trkpt><trkpt lat="47.8108530398" lon="8.03288809955">
        <ele>929.7</ele>
        <time>2011-04-24T21:58:05Z</time>
      </trkpt><trkpt lat="47.810829822" lon="8.03273135796">
        <ele>929.7</ele>
        <time>2011-04-24T21:58:19Z</time>
      </trkpt><trkpt lat="47.8109428938" lon="8.03268014453">
        <ele>929.7</ele>
        <time>2011-04-24T21:58:33Z</time>
      </trkpt><trkpt lat="47.8109350987" lon="8.03270093165">
        <ele>929.7</ele>
        <time>2011-04-24T21:58:35Z</time>
      </trkpt><trkpt lat="47.8109198436" lon="8.03244184703">
        <ele>929.7</ele>
        <time>2011-04-24T21:58:57Z</time>
      </trkpt><trkpt lat="47.8109203465" lon="8.03219483234">
        <ele>930.2</ele>
        <time>2011-04-24T21:59:18Z</time>
      </trkpt><trkpt lat="47.810925208" lon="8.03216298111">
        <ele>930.2</ele>
        <time>2011-04-24T21:59:20Z</time>
      </trkpt><trkpt lat="47.8109306563" lon="8.03208469413">
        <ele>931.2</ele>
        <time>2011-04-24T21:59:27Z</time>
      </trkpt><trkpt lat="47.8109735716" lon="8.03180649877">
        <ele>933.1</ele>
        <time>2011-04-24T21:59:51Z</time>
      </trkpt><trkpt lat="47.8110111225" lon="8.03171421401">
        <ele>933.6</ele>
        <time>2011-04-24T22:00:00Z</time>
      </trkpt><trkpt lat="47.81101414" lon="8.03168839775">
        <ele>934.5</ele>
        <time>2011-04-24T22:00:02Z</time>
      </trkpt><trkpt lat="47.8110918403" lon="8.03156241775">
        <ele>935</ele>
        <time>2011-04-24T22:00:16Z</time>
      </trkpt><trkpt lat="47.8110921755" lon="8.03158823401">
        <ele>935.5</ele>
        <time>2011-04-24T22:00:19Z</time>
      </trkpt><trkpt lat="47.8111001384" lon="8.03162821569">
        <ele>937.4</ele>
        <time>2011-04-24T22:00:22Z</time>
      </trkpt><trkpt lat="47.8110926785" lon="8.03167976439">
        <ele>936.5</ele>
        <time>2011-04-24T22:00:26Z</time>
      </trkpt><trkpt lat="47.8111334145" lon="8.0317339953">
        <ele>936.9</ele>
        <time>2011-04-24T22:00:33Z</time>
      </trkpt><trkpt lat="47.8112002183" lon="8.03193038329">
        <ele>938.9</ele>
        <time>2011-04-24T22:00:52Z</time>
      </trkpt><trkpt lat="47.8112469055" lon="8.03213112988">
        <ele>941.3</ele>
        <time>2011-04-24T22:01:09Z</time>
      </trkpt><trkpt lat="47.8112541139" lon="8.03214554675">
        <ele>941.3</ele>
        <time>2011-04-24T22:01:11Z</time>
      </trkpt><trkpt lat="47.8112977836" lon="8.03233011626">
        <ele>942.7</ele>
        <time>2011-04-24T22:01:27Z</time>
      </trkpt><trkpt lat="47.8113364242" lon="8.03232927807">
        <ele>942.2</ele>
        <time>2011-04-24T22:01:32Z</time>
      </trkpt><trkpt lat="47.8113508411" lon="8.03231628612">
        <ele>943.2</ele>
        <time>2011-04-24T22:01:34Z</time>
      </trkpt><trkpt lat="47.8113629948" lon="8.03230170161">
        <ele>943.2</ele>
        <time>2011-04-24T22:01:36Z</time>
      </trkpt><trkpt lat="47.8114042338" lon="8.03212056868">
        <ele>945.1</ele>
        <time>2011-04-24T22:01:52Z</time>
      </trkpt><trkpt lat="47.811443964" lon="8.03193599917">
        <ele>947</ele>
        <time>2011-04-24T22:02:08Z</time>
      </trkpt><trkpt lat="47.8114805929" lon="8.03179526702">
        <ele>949.4</ele>
        <time>2011-04-24T22:02:21Z</time>
      </trkpt><trkpt lat="47.8115088399" lon="8.03185964003">
        <ele>951.8</ele>
        <time>2011-04-24T22:02:27Z</time>
      </trkpt><trkpt lat="47.8115491569" lon="8.03199492395">
        <ele>953.3</ele>
        <time>2011-04-24T22:02:40Z</time>
      </trkpt><trkpt lat="47.8115781583" lon="8.03210707381">
        <ele>954.7</ele>
        <time>2011-04-24T22:02:50Z</time>
      </trkpt><trkpt lat="47.8115762305" lon="8.03213439882">
        <ele>955.2</ele>
        <time>2011-04-24T22:02:52Z</time>
      </trkpt><trkpt lat="47.8116387594" lon="8.03232592531">
        <ele>957.1</ele>
        <time>2011-04-24T22:03:10Z</time>
      </trkpt><trkpt lat="47.8116974328" lon="8.03244302049">
        <ele>959.1</ele>
        <time>2011-04-24T22:03:22Z</time>
      </trkpt><trkpt lat="47.8117458802" lon="8.03254159167">
        <ele>961</ele>
        <time>2011-04-24T22:03:32Z</time>
      </trkpt><trkpt lat="47.8117774799" lon="8.03268500604">
        <ele>963.4</ele>
        <time>2011-04-24T22:03:45Z</time>
      </trkpt><trkpt lat="47.8118518274" lon="8.03277360275">
        <ele>964.8</ele>
        <time>2011-04-24T22:03:57Z</time>
      </trkpt><trkpt lat="47.8118663281" lon="8.03282263689">
        <ele>965.8</ele>
        <time>2011-04-24T22:04:01Z</time>
      </trkpt><trkpt lat="47.8119698446" lon="8.03292120807">
        <ele>967.2</ele>
        <time>2011-04-24T22:04:17Z</time>
      </trkpt><trkpt lat="47.8120673262" lon="8.03303109482">
        <ele>970.1</ele>
        <time>2011-04-24T22:04:32Z</time>
      </trkpt><trkpt lat="47.812144272" lon="8.03313050419">
        <ele>972.5</ele>
        <time>2011-04-24T22:04:45Z</time>
      </trkpt><trkpt lat="47.8122642171" lon="8.03321625106">
        <ele>974.9</ele>
        <time>2011-04-24T22:05:01Z</time>
      </trkpt><trkpt lat="47.81225265" lon="8.03329654969">
        <ele>975.9</ele>
        <time>2011-04-24T22:05:08Z</time>
      </trkpt><trkpt lat="47.8123294283" lon="8.03338053636">
        <ele>977.8</ele>
        <time>2011-04-24T22:05:20Z</time>
      </trkpt><trkpt lat="47.812450882" lon="8.0334828794">
        <ele>980.7</ele>
        <time>2011-04-24T22:05:37Z</time>
      </trkpt><trkpt lat="47.8125919495" lon="8.03356359713">
        <ele>983.6</ele>
        <time>2011-04-24T22:05:56Z</time>
      </trkpt><trkpt lat="47.8127058595" lon="8.03366141394">
        <ele>986.4</ele>
        <time>2011-04-24T22:06:13Z</time>
      </trkpt><trkpt lat="47.8128467593" lon="8.03372260183">
        <ele>988.9</ele>
        <time>2011-04-24T22:06:31Z</time>
      </trkpt><trkpt lat="47.8129818756" lon="8.03381203674">
        <ele>991.7</ele>
        <time>2011-04-24T22:06:49Z</time>
      </trkpt><trkpt lat="47.8130926844" lon="8.03388873115">
        <ele>995.1</ele>
        <time>2011-04-24T22:07:05Z</time>
      </trkpt><trkpt lat="47.8132042475" lon="8.03400138393">
        <ele>997.5</ele>
        <time>2011-04-24T22:07:21Z</time>
      </trkpt><trkpt lat="47.8133347537" lon="8.03403222933">
        <ele>1000.4</ele>
        <time>2011-04-24T22:07:38Z</time>
      </trkpt><trkpt lat="47.8134113643" lon="8.03398554213">
        <ele>1002.8</ele>
        <time>2011-04-24T22:07:48Z</time>
      </trkpt><trkpt lat="47.8135080077" lon="8.03392334841">
        <ele>1005.2</ele>
        <time>2011-04-24T22:08:01Z</time>
      </trkpt><trkpt lat="47.8134775814" lon="8.0339070037">
        <ele>1005.7</ele>
        <time>2011-04-24T22:08:05Z</time>
      </trkpt><trkpt lat="47.8134125378" lon="8.03379275836">
        <ele>1007.6</ele>
        <time>2011-04-24T22:08:18Z</time>
      </trkpt><trkpt lat="47.8133395314" lon="8.03368044086">
        <ele>1010</ele>
        <time>2011-04-24T22:08:31Z</time>
      </trkpt><trkpt lat="47.8132523596" lon="8.03352286108">
        <ele>1011.9</ele>
        <time>2011-04-24T22:08:48Z</time>
      </trkpt><trkpt lat="47.8131914232" lon="8.0333551392">
        <ele>1013.8</ele>
        <time>2011-04-24T22:09:04Z</time>
      </trkpt><trkpt lat="47.813097965" lon="8.03314383142">
        <ele>1017.2</ele>
        <time>2011-04-24T22:09:25Z</time>
      </trkpt><trkpt lat="47.8130226117" lon="8.03304425441">
        <ele>1019.1</ele>
        <time>2011-04-24T22:09:38Z</time>
      </trkpt><trkpt lat="47.8129942808" lon="8.03294509649">
        <ele>1021.1</ele>
        <time>2011-04-24T22:09:47Z</time>
      </trkpt><trkpt lat="47.813008111" lon="8.03289329633">
        <ele>1021.5</ele>
        <time>2011-04-24T22:09:51Z</time>
      </trkpt><trkpt lat="47.8129921015" lon="8.0327729322">
        <ele>1023.9</ele>
        <time>2011-04-24T22:10:02Z</time>
      </trkpt><trkpt lat="47.812920101" lon="8.03262893111">
        <ele>1024.4</ele>
        <time>2011-04-24T22:10:17Z</time>
      </trkpt><trkpt lat="47.8129097074" lon="8.03248233162">
        <ele>1027.3</ele>
        <time>2011-04-24T22:10:29Z</time>
      </trkpt><trkpt lat="47.8129348531" lon="8.03229935467">
        <ele>1029.2</ele>
        <time>2011-04-24T22:10:45Z</time>
      </trkpt><trkpt lat="47.8129819594" lon="8.03207949735">
        <ele>1031.6</ele>
        <time>2011-04-24T22:11:04Z</time>
      </trkpt><trkpt lat="47.8130216897" lon="8.03187020123">
        <ele>1033.6</ele>
        <time>2011-04-24T22:11:22Z</time>
      </trkpt><trkpt lat="47.8130421415" lon="8.03179535083">
        <ele>1036.4</ele>
        <time>2011-04-24T22:11:29Z</time>
      </trkpt><trkpt lat="47.8131283075" lon="8.03175495006">
        <ele>1038.4</ele>
        <time>2011-04-24T22:11:40Z</time>
      </trkpt><trkpt lat="47.8131656907" lon="8.03166392259">
        <ele>1040.3</ele>
        <time>2011-04-24T22:11:49Z</time>
      </trkpt><trkpt lat="47.8132469114" lon="8.03149871528">
        <ele>1042.2</ele>
        <time>2011-04-24T22:12:06Z</time>
      </trkpt><trkpt lat="47.8133430518" lon="8.03143811412">
        <ele>1043.6</ele>
        <time>2011-04-24T22:12:19Z</time>
      </trkpt><trkpt lat="47.8133718856" lon="8.03157750517">
        <ele>1045.1</ele>
        <time>2011-04-24T22:12:31Z</time>
      </trkpt><trkpt lat="47.8133744001" lon="8.03161891177">
        <ele>1045.1</ele>
        <time>2011-04-24T22:12:35Z</time>
      </trkpt><trkpt lat="47.8134188242" lon="8.03166492842">
        <ele>1046.1</ele>
        <time>2011-04-24T22:12:42Z</time>
      </trkpt><trkpt lat="47.8135103546" lon="8.0317062512">
        <ele>1048.9</ele>
        <time>2011-04-24T22:12:53Z</time>
      </trkpt><trkpt lat="47.8135669325" lon="8.03186198696">
        <ele>1051.3</ele>
        <time>2011-04-24T22:13:08Z</time>
      </trkpt><trkpt lat="47.8136090096" lon="8.03193415515">
        <ele>1052.3</ele>
        <time>2011-04-24T22:13:16Z</time>
      </trkpt><trkpt lat="47.8136970196" lon="8.03203842603">
        <ele>1052.8</ele>
        <time>2011-04-24T22:13:30Z</time>
      </trkpt><trkpt lat="47.813730631" lon="8.03207421675">
        <ele>1053.3</ele>
        <time>2011-04-24T22:13:35Z</time>
      </trkpt><trkpt lat="47.8137689363" lon="8.03212693892">
        <ele>1052.3</ele>
        <time>2011-04-24T22:13:42Z</time>
      </trkpt><trkpt lat="47.8138295375" lon="8.0322378315">
        <ele>1051.3</ele>
        <time>2011-04-24T22:13:54Z</time>
      </trkpt><trkpt lat="47.8138463013" lon="8.03224537522">
        <ele>1051.3</ele>
        <time>2011-04-24T22:13:56Z</time>
      </trkpt><trkpt lat="47.8138864506" lon="8.03231083788">
        <ele>1051.8</ele>
        <time>2011-04-24T22:14:03Z</time>
      </trkpt><trkpt lat="47.8139017057" lon="8.03233539686">
        <ele>1051.3</ele>
        <time>2011-04-24T22:14:06Z</time>
      </trkpt><trkpt lat="47.8140375763" lon="8.03251233883">
        <ele>1051.8</ele>
        <time>2011-04-24T22:14:29Z</time>
      </trkpt><trkpt lat="47.8142143507" lon="8.03261426277">
        <ele>1050.9</ele>
        <time>2011-04-24T22:14:52Z</time>
      </trkpt><trkpt lat="47.8142881114" lon="8.03264837712">
        <ele>1049.9</ele>
        <time>2011-04-24T22:15:02Z</time>
      </trkpt><trkpt lat="47.8144113254" lon="8.03273973987">
        <ele>1050.4</ele>
        <time>2011-04-24T22:15:19Z</time>
      </trkpt><trkpt lat="47.8144865949" lon="8.0327817332">
        <ele>1050.9</ele>
        <time>2011-04-24T22:15:29Z</time>
      </trkpt><trkpt lat="47.8145250678" lon="8.0328249">
        <ele>1050.9</ele>
        <time>2011-04-24T22:15:35Z</time>
      </trkpt><trkpt lat="47.8146272432" lon="8.03292347118">
        <ele>1051.3</ele>
        <time>2011-04-24T22:15:50Z</time>
      </trkpt><trkpt lat="47.8147184383" lon="8.03308834322">
        <ele>1052.3</ele>
        <time>2011-04-24T22:16:08Z</time>
      </trkpt><trkpt lat="47.8147538938" lon="8.0331468489">
        <ele>1053.3</ele>
        <time>2011-04-24T22:16:15Z</time>
      </trkpt><trkpt lat="47.8148420714" lon="8.0333133135">
        <ele>1054.7</ele>
        <time>2011-04-24T22:16:33Z</time>
      </trkpt><trkpt lat="47.8148591705" lon="8.03334231488">
        <ele>1054.2</ele>
        <time>2011-04-24T22:16:36Z</time>
      </trkpt><trkpt lat="47.8149087075" lon="8.03341632709">
        <ele>1055.2</ele>
        <time>2011-04-24T22:16:44Z</time>
      </trkpt><trkpt lat="47.8149889223" lon="8.03358849138">
        <ele>1057.1</ele>
        <time>2011-04-24T22:17:02Z</time>
      </trkpt><trkpt lat="47.8149940353" lon="8.03360072896">
        <ele>1057.1</ele>
        <time>2011-04-24T22:17:03Z</time>
      </trkpt><trkpt lat="47.8150036745" lon="8.03362729959">
        <ele>1057.1</ele>
        <time>2011-04-24T22:17:06Z</time>
      </trkpt><trkpt lat="47.8150544688" lon="8.0337360967">
        <ele>1058.1</ele>
        <time>2011-04-24T22:17:17Z</time>
      </trkpt><trkpt lat="47.8151343483" lon="8.03389057517">
        <ele>1059.5</ele>
        <time>2011-04-24T22:17:33Z</time>
      </trkpt><trkpt lat="47.8151868191" lon="8.03400398232">
        <ele>1061</ele>
        <time>2011-04-24T22:17:45Z</time>
      </trkpt><trkpt lat="47.8152652737" lon="8.03410012275">
        <ele>1062.4</ele>
        <time>2011-04-24T22:17:57Z</time>
      </trkpt><trkpt lat="47.8152931016" lon="8.03412090987">
        <ele>1062.9</ele>
        <time>2011-04-24T22:18:01Z</time>
      </trkpt><trkpt lat="47.8154011443" lon="8.03420749493">
        <ele>1064.3</ele>
        <time>2011-04-24T22:18:17Z</time>
      </trkpt><trkpt lat="47.8154891543" lon="8.03431126289">
        <ele>1065.8</ele>
        <time>2011-04-24T22:18:30Z</time>
      </trkpt><trkpt lat="47.8155789245" lon="8.03438980132">
        <ele>1067.7</ele>
        <time>2011-04-24T22:18:43Z</time>
      </trkpt><trkpt lat="47.8156636655" lon="8.03447487764">
        <ele>1069.1</ele>
        <time>2011-04-24T22:18:56Z</time>
      </trkpt><trkpt lat="47.8157459758" lon="8.03458224982">
        <ele>1070.6</ele>
        <time>2011-04-24T22:19:10Z</time>
      </trkpt><trkpt lat="47.8157633264" lon="8.03459038027">
        <ele>1071</ele>
        <time>2011-04-24T22:19:12Z</time>
      </trkpt><trkpt lat="47.8158573713" lon="8.03459473886">
        <ele>1072</ele>
        <time>2011-04-24T22:19:24Z</time>
      </trkpt><trkpt lat="47.8158714529" lon="8.0345975887">
        <ele>1072</ele>
        <time>2011-04-24T22:19:26Z</time>
      </trkpt><trkpt lat="47.8158929106" lon="8.0346028693">
        <ele>1072</ele>
        <time>2011-04-24T22:19:28Z</time>
      </trkpt><trkpt lat="47.8160638176" lon="8.03464042023">
        <ele>1073.4</ele>
        <time>2011-04-24T22:19:50Z</time>
      </trkpt><trkpt lat="47.8162120096" lon="8.03465198725">
        <ele>1074.9</ele>
        <time>2011-04-24T22:20:08Z</time>
      </trkpt><trkpt lat="47.8163187113" lon="8.03467637859">
        <ele>1076.3</ele>
        <time>2011-04-24T22:20:22Z</time>
      </trkpt><trkpt lat="47.8163465392" lon="8.03468006663">
        <ele>1077.3</ele>
        <time>2011-04-24T22:20:25Z</time>
      </trkpt><trkpt lat="47.8164520673" lon="8.03471988067">
        <ele>1077.8</ele>
        <time>2011-04-24T22:20:39Z</time>
      </trkpt><trkpt lat="47.8165950626" lon="8.03473153152">
        <ele>1079.2</ele>
        <time>2011-04-24T22:20:57Z</time>
      </trkpt><trkpt lat="47.816617107" lon="8.03473186679">
        <ele>1079.2</ele>
        <time>2011-04-24T22:20:59Z</time>
      </trkpt><trkpt lat="47.8166969866" lon="8.03477612324">
        <ele>1080.2</ele>
        <time>2011-04-24T22:21:10Z</time>
      </trkpt><trkpt lat="47.8167822305" lon="8.03478643298">
        <ele>1081.6</ele>
        <time>2011-04-24T22:21:21Z</time>
      </trkpt><trkpt lat="47.8168782033" lon="8.03480780683">
        <ele>1082.6</ele>
        <time>2011-04-24T22:21:33Z</time>
      </trkpt><trkpt lat="47.8169336077" lon="8.03482373245">
        <ele>1083.1</ele>
        <time>2011-04-24T22:21:40Z</time>
      </trkpt><trkpt lat="47.8170546424" lon="8.0348433461">
        <ele>1084.5</ele>
        <time>2011-04-24T22:21:55Z</time>
      </trkpt><trkpt lat="47.8171822987" lon="8.03487083875">
        <ele>1085.9</ele>
        <time>2011-04-24T22:22:11Z</time>
      </trkpt><trkpt lat="47.817296125" lon="8.03485466167">
        <ele>1086.9</ele>
        <time>2011-04-24T22:22:25Z</time>
      </trkpt><trkpt lat="47.8173667006" lon="8.03482356481">
        <ele>1087.9</ele>
        <time>2011-04-24T22:22:34Z</time>
      </trkpt><trkpt lat="47.8175112884" lon="8.03481627256">
        <ele>1089.3</ele>
        <time>2011-04-24T22:22:52Z</time>
      </trkpt><trkpt lat="47.8176325746" lon="8.03482666612">
        <ele>1090.8</ele>
        <time>2011-04-24T22:23:08Z</time>
      </trkpt><trkpt lat="47.8177518491" lon="8.03483379073">
        <ele>1092.7</ele>
        <time>2011-04-24T22:23:22Z</time>
      </trkpt><trkpt lat="47.8178976942" lon="8.03485675715">
        <ele>1094.1</ele>
        <time>2011-04-24T22:23:41Z</time>
      </trkpt><trkpt lat="47.8180629853" lon="8.03488022648">
        <ele>1096</ele>
        <time>2011-04-24T22:24:01Z</time>
      </trkpt><trkpt lat="47.8181499895" lon="8.03483881988">
        <ele>1096.5</ele>
        <time>2011-04-24T22:24:13Z</time>
      </trkpt><trkpt lat="47.8182895482" lon="8.0347812362">
        <ele>1098</ele>
        <time>2011-04-24T22:24:31Z</time>
      </trkpt><trkpt lat="47.8183372412" lon="8.03477520123">
        <ele>1098.4</ele>
        <time>2011-04-24T22:24:37Z</time>
      </trkpt><trkpt lat="47.8184585273" lon="8.0348089803">
        <ele>1099.4</ele>
        <time>2011-04-24T22:24:52Z</time>
      </trkpt><trkpt lat="47.8185781371" lon="8.03484954871">
        <ele>1100.8</ele>
        <time>2011-04-24T22:25:07Z</time>
      </trkpt><trkpt lat="47.8186785523" lon="8.03480403498">
        <ele>1101.8</ele>
        <time>2011-04-24T22:25:20Z</time>
      </trkpt><trkpt lat="47.8186689969" lon="8.03473597392">
        <ele>1102.3</ele>
        <time>2011-04-24T22:25:26Z</time>
      </trkpt><trkpt lat="47.8186144307" lon="8.03486656398">
        <ele>1102.3</ele>
        <time>2011-04-24T22:25:39Z</time>
      </trkpt><trkpt lat="47.8187566716" lon="8.03490000777">
        <ele>1103.3</ele>
        <time>2011-04-24T22:25:57Z</time>
      </trkpt><trkpt lat="47.8189705778" lon="8.0349732656">
        <ele>1105.2</ele>
        <time>2011-04-24T22:26:24Z</time>
      </trkpt><trkpt lat="47.8191215359" lon="8.03494535387">
        <ele>1107.6</ele>
        <time>2011-04-24T22:26:43Z</time>
      </trkpt><trkpt lat="47.8192046843" lon="8.0349684041">
        <ele>1110.5</ele>
        <time>2011-04-24T22:26:54Z</time>
      </trkpt><trkpt lat="47.8193268925" lon="8.03497117013">
        <ele>1110.9</ele>
        <time>2011-04-24T22:27:09Z</time>
      </trkpt><trkpt lat="47.8194523696" lon="8.03497636691">
        <ele>1112.4</ele>
        <time>2011-04-24T22:27:25Z</time>
      </trkpt><trkpt lat="47.8195373621" lon="8.03498416208">
        <ele>1114.3</ele>
        <time>2011-04-24T22:27:35Z</time>
      </trkpt><trkpt lat="47.8196355142" lon="8.0349974893">
        <ele>1115.7</ele>
        <time>2011-04-24T22:27:48Z</time>
      </trkpt><trkpt lat="47.8197422996" lon="8.0349736847">
        <ele>1116.7</ele>
        <time>2011-04-24T22:28:01Z</time>
      </trkpt><trkpt lat="47.8198110312" lon="8.03488014266">
        <ele>1119.1</ele>
        <time>2011-04-24T22:28:13Z</time>
      </trkpt><trkpt lat="47.819928294" lon="8.03472105414">
        <ele>1121</ele>
        <time>2011-04-24T22:28:33Z</time>
      </trkpt><trkpt lat="47.8199927509" lon="8.0346587766">
        <ele>1121.5</ele>
        <time>2011-04-24T22:28:42Z</time>
      </trkpt><trkpt lat="47.8199492488" lon="8.03455316462">
        <ele>1123</ele>
        <time>2011-04-24T22:28:52Z</time>
      </trkpt><trkpt lat="47.8199640848" lon="8.03436490707">
        <ele>1124.9</ele>
        <time>2011-04-24T22:29:08Z</time>
      </trkpt><trkpt lat="47.8199668508" lon="8.03436499089">
        <ele>1124.4</ele>
        <time>2011-04-24T22:29:09Z</time>
      </trkpt><trkpt lat="47.8199826926" lon="8.03432551213">
        <ele>1124.9</ele>
        <time>2011-04-24T22:29:12Z</time>
      </trkpt><trkpt lat="47.8200534359" lon="8.03423557431">
        <ele>1126.8</ele>
        <time>2011-04-24T22:29:24Z</time>
      </trkpt><trkpt lat="47.8201188147" lon="8.03415619768">
        <ele>1128.7</ele>
        <time>2011-04-24T22:29:35Z</time>
      </trkpt><trkpt lat="47.8202040587" lon="8.03405519575">
        <ele>1130.6</ele>
        <time>2011-04-24T22:29:48Z</time>
      </trkpt><trkpt lat="47.8203072399" lon="8.03399920464">
        <ele>1132.6</ele>
        <time>2011-04-24T22:30:02Z</time>
      </trkpt><trkpt lat="47.8203838505" lon="8.03395201452">
        <ele>1134</ele>
        <time>2011-04-24T22:30:12Z</time>
      </trkpt><trkpt lat="47.8204207309" lon="8.03394430317">
        <ele>1135</ele>
        <time>2011-04-24T22:30:17Z</time>
      </trkpt><trkpt lat="47.8205222357" lon="8.03393952549">
        <ele>1136.9</ele>
        <time>2011-04-24T22:30:29Z</time>
      </trkpt><trkpt lat="47.8206123412" lon="8.03397246636">
        <ele>1138.3</ele>
        <time>2011-04-24T22:30:41Z</time>
      </trkpt><trkpt lat="47.82065643" lon="8.03399132565">
        <ele>1139.3</ele>
        <time>2011-04-24T22:30:47Z</time>
      </trkpt><trkpt lat="47.820771765" lon="8.03401990794">
        <ele>1140.7</ele>
        <time>2011-04-24T22:31:01Z</time>
      </trkpt><trkpt lat="47.8207775485" lon="8.03402191959">
        <ele>1141.2</ele>
        <time>2011-04-24T22:31:02Z</time>
      </trkpt><trkpt lat="47.8208806459" lon="8.03401739337">
        <ele>1142.7</ele>
        <time>2011-04-24T22:31:15Z</time>
      </trkpt><trkpt lat="47.8210065421" lon="8.03402468562">
        <ele>1144.1</ele>
        <time>2011-04-24T22:31:31Z</time>
      </trkpt><trkpt lat="47.8210895229" lon="8.03403801285">
        <ele>1146.5</ele>
        <time>2011-04-24T22:31:41Z</time>
      </trkpt><trkpt lat="47.821170995" lon="8.03408461623">
        <ele>1147.5</ele>
        <time>2011-04-24T22:31:52Z</time>
      </trkpt><trkpt lat="47.8212801274" lon="8.03408855572">
        <ele>1149.4</ele>
        <time>2011-04-24T22:32:05Z</time>
      </trkpt><trkpt lat="47.8214361146" lon="8.03403977305">
        <ele>1151.3</ele>
        <time>2011-04-24T22:32:25Z</time>
      </trkpt><trkpt lat="47.8215200175" lon="8.03404119797">
        <ele>1153.7</ele>
        <time>2011-04-24T22:32:36Z</time>
      </trkpt><trkpt lat="47.8214455862" lon="8.03417069837">
        <ele>1155.2</ele>
        <time>2011-04-24T22:32:50Z</time>
      </trkpt><trkpt lat="47.8212642856" lon="8.03429516964">
        <ele>1157.1</ele>
        <time>2011-04-24T22:33:15Z</time>
      </trkpt><trkpt lat="47.8211129922" lon="8.03451896645">
        <ele>1159</ele>
        <time>2011-04-24T22:33:41Z</time>
      </trkpt><trkpt lat="47.821068652" lon="8.03462902084">
        <ele>1160</ele>
        <time>2011-04-24T22:33:52Z</time>
      </trkpt><trkpt lat="47.8210114036" lon="8.03478794172">
        <ele>1162.4</ele>
        <time>2011-04-24T22:34:07Z</time>
      </trkpt><trkpt lat="47.8209881857" lon="8.03487628698">
        <ele>1164.3</ele>
        <time>2011-04-24T22:34:15Z</time>
      </trkpt><trkpt lat="47.8210608568" lon="8.0347446911">
        <ele>1164.8</ele>
        <time>2011-04-24T22:34:29Z</time>
      </trkpt><trkpt lat="47.8211060353" lon="8.03471124731">
        <ele>1164.8</ele>
        <time>2011-04-24T22:34:36Z</time>
      </trkpt><trkpt lat="47.8211696539" lon="8.034725748">
        <ele>1166.7</ele>
        <time>2011-04-24T22:34:44Z</time>
      </trkpt><trkpt lat="47.821266884" lon="8.03469632752">
        <ele>1169.1</ele>
        <time>2011-04-24T22:34:56Z</time>
      </trkpt><trkpt lat="47.8213856556" lon="8.03469540551">
        <ele>1171</ele>
        <time>2011-04-24T22:35:11Z</time>
      </trkpt><trkpt lat="47.8214767668" lon="8.03465894423">
        <ele>1172.9</ele>
        <time>2011-04-24T22:35:23Z</time>
      </trkpt><trkpt lat="47.8214962967" lon="8.03465827368">
        <ele>1172.9</ele>
        <time>2011-04-24T22:35:25Z</time>
      </trkpt><trkpt lat="47.8216009028" lon="8.03466288373">
        <ele>1175.3</ele>
        <time>2011-04-24T22:35:38Z</time>
      </trkpt><trkpt lat="47.8216647729" lon="8.03465425037">
        <ele>1178.2</ele>
        <time>2011-04-24T22:35:46Z</time>
      </trkpt><trkpt lat="47.8217507713" lon="8.03458308801">
        <ele>1181.1</ele>
        <time>2011-04-24T22:35:58Z</time>
      </trkpt><trkpt lat="47.8218500968" lon="8.03463270888">
        <ele>1183.5</ele>
        <time>2011-04-24T22:36:11Z</time>
      </trkpt><trkpt lat="47.8218932636" lon="8.03459247574">
        <ele>1185.9</ele>
        <time>2011-04-24T22:36:18Z</time>
      </trkpt><trkpt lat="47.8219830338" lon="8.03449499421">
        <ele>1188.3</ele>
        <time>2011-04-24T22:36:32Z</time>
      </trkpt><trkpt lat="47.822062159" lon="8.03446699865">
        <ele>1190.7</ele>
        <time>2011-04-24T22:36:42Z</time>
      </trkpt><trkpt lat="47.8221196588" lon="8.03444663063">
        <ele>1193.6</ele>
        <time>2011-04-24T22:36:49Z</time>
      </trkpt><trkpt lat="47.8222031426" lon="8.03447730839">
        <ele>1197</ele>
        <time>2011-04-24T22:37:00Z</time>
      </trkpt><trkpt lat="47.8223156277" lon="8.03446976468">
        <ele>1199.9</ele>
        <time>2011-04-24T22:37:14Z</time>
      </trkpt><trkpt lat="47.8223313019" lon="8.03446523845">
        <ele>1202.3</ele>
        <time>2011-04-24T22:37:16Z</time>
      </trkpt><trkpt lat="47.8224108461" lon="8.0344694294">
        <ele>1202.7</ele>
        <time>2011-04-24T22:37:26Z</time>
      </trkpt><trkpt lat="47.8225028794" lon="8.03445979021">
        <ele>1204.2</ele>
        <time>2011-04-24T22:37:37Z</time>
      </trkpt><trkpt lat="47.8225857764" lon="8.03448300809">
        <ele>1207.1</ele>
        <time>2011-04-24T22:37:48Z</time>
      </trkpt><trkpt lat="47.8227253351" lon="8.03451796062">
        <ele>1208.5</ele>
        <time>2011-04-24T22:38:05Z</time>
      </trkpt><trkpt lat="47.822884256" lon="8.03456305526">
        <ele>1210.9</ele>
        <time>2011-04-24T22:38:26Z</time>
      </trkpt><trkpt lat="47.8230262455" lon="8.03463656455">
        <ele>1213.8</ele>
        <time>2011-04-24T22:38:44Z</time>
      </trkpt><trkpt lat="47.8231234755" lon="8.0346222315">
        <ele>1214.3</ele>
        <time>2011-04-24T22:38:56Z</time>
      </trkpt><trkpt lat="47.8232766967" lon="8.03458811715">
        <ele>1216.2</ele>
        <time>2011-04-24T22:39:16Z</time>
      </trkpt><trkpt lat="47.8233727533" lon="8.0346759595">
        <ele>1219.6</ele>
        <time>2011-04-24T22:39:30Z</time>
      </trkpt><trkpt lat="47.8234989848" lon="8.03473387845">
        <ele>1222.5</ele>
        <time>2011-04-24T22:39:46Z</time>
      </trkpt><trkpt lat="47.8235198557" lon="8.03484711796">
        <ele>1223.4</ele>
        <time>2011-04-24T22:39:56Z</time>
      </trkpt><trkpt lat="47.8233134095" lon="8.03497904912">
        <ele>1224.9</ele>
        <time>2011-04-24T22:40:24Z</time>
      </trkpt><trkpt lat="47.8231623676" lon="8.03500746377">
        <ele>1226.3</ele>
        <time>2011-04-24T22:40:43Z</time>
      </trkpt><trkpt lat="47.8230246529" lon="8.03503789008">
        <ele>1228.2</ele>
        <time>2011-04-24T22:41:00Z</time>
      </trkpt><trkpt lat="47.8228826635" lon="8.03507443517">
        <ele>1229.7</ele>
        <time>2011-04-24T22:41:18Z</time>
      </trkpt><trkpt lat="47.822679989" lon="8.03513386287">
        <ele>1231.6</ele>
        <time>2011-04-24T22:41:44Z</time>
      </trkpt><trkpt lat="47.8225082438" lon="8.0351723358">
        <ele>1232.5</ele>
        <time>2011-04-24T22:42:06Z</time>
      </trkpt><trkpt lat="47.8226213995" lon="8.03523092531">
        <ele>1235.4</ele>
        <time>2011-04-24T22:42:21Z</time>
      </trkpt><trkpt lat="47.8227920551" lon="8.03521441296">
        <ele>1237.4</ele>
        <time>2011-04-24T22:42:42Z</time>
      </trkpt><trkpt lat="47.8229659796" lon="8.03521826863">
        <ele>1239.8</ele>
        <time>2011-04-24T22:43:04Z</time>
      </trkpt><trkpt lat="47.8230715077" lon="8.03524802439">
        <ele>1241.7</ele>
        <time>2011-04-24T22:43:17Z</time>
      </trkpt><trkpt lat="47.8232063726" lon="8.03524215706">
        <ele>1243.1</ele>
        <time>2011-04-24T22:43:34Z</time>
      </trkpt><trkpt lat="47.8233697359" lon="8.03527384065">
        <ele>1245.5</ele>
        <time>2011-04-24T22:43:54Z</time>
      </trkpt><trkpt lat="47.82357811" lon="8.03528641351">
        <ele>1247.4</ele>
        <time>2011-04-24T22:44:20Z</time>
      </trkpt><trkpt lat="47.8236062732" lon="8.03529119119">
        <ele>1247.4</ele>
        <time>2011-04-24T22:44:24Z</time>
      </trkpt><trkpt lat="47.8237677086" lon="8.03525623865">
        <ele>1249.4</ele>
        <time>2011-04-24T22:44:44Z</time>
      </trkpt><trkpt lat="47.8239436448" lon="8.03515180014">
        <ele>1250.8</ele>
        <time>2011-04-24T22:45:08Z</time>
      </trkpt><trkpt lat="47.8240169026" lon="8.03511617705">
        <ele>1252.7</ele>
        <time>2011-04-24T22:45:17Z</time>
      </trkpt><trkpt lat="47.8241671901" lon="8.03511148319">
        <ele>1254.2</ele>
        <time>2011-04-24T22:45:36Z</time>
      </trkpt><trkpt lat="47.8243183158" lon="8.03507795557">
        <ele>1256.6</ele>
        <time>2011-04-24T22:45:55Z</time>
      </trkpt><trkpt lat="47.8243784979" lon="8.03502498195">
        <ele>1258</ele>
        <time>2011-04-24T22:46:04Z</time>
      </trkpt><trkpt lat="47.8245474771" lon="8.03491266444">
        <ele>1259.5</ele>
        <time>2011-04-24T22:46:27Z</time>
      </trkpt><trkpt lat="47.8246705234" lon="8.03484477103">
        <ele>1261.9</ele>
        <time>2011-04-24T22:46:43Z</time>
      </trkpt><trkpt lat="47.824811507" lon="8.03485072218">
        <ele>1264.3</ele>
        <time>2011-04-24T22:47:01Z</time>
      </trkpt><trkpt lat="47.8249156103" lon="8.03492356092">
        <ele>1267.2</ele>
        <time>2011-04-24T22:47:15Z</time>
      </trkpt><trkpt lat="47.8250665683" lon="8.03497066721">
        <ele>1270</ele>
        <time>2011-04-24T22:47:34Z</time>
      </trkpt><trkpt lat="47.8251710907" lon="8.03490730003">
        <ele>1271</ele>
        <time>2011-04-24T22:47:48Z</time>
      </trkpt><trkpt lat="47.8253510501" lon="8.0348838307">
        <ele>1273.4</ele>
        <time>2011-04-24T22:48:11Z</time>
      </trkpt><trkpt lat="47.8254546504" lon="8.03481593728">
        <ele>1275.3</ele>
        <time>2011-04-24T22:48:25Z</time>
      </trkpt><trkpt lat="47.825527573" lon="8.0346931424">
        <ele>1277.7</ele>
        <time>2011-04-24T22:48:39Z</time>
      </trkpt><trkpt lat="47.8256338555" lon="8.03458224982">
        <ele>1279.7</ele>
        <time>2011-04-24T22:48:55Z</time>
      </trkpt><trkpt lat="47.825727649" lon="8.03451544605">
        <ele>1280.1</ele>
        <time>2011-04-24T22:49:08Z</time>
      </trkpt><trkpt lat="47.8258610051" lon="8.03440740332">
        <ele>1280.6</ele>
        <time>2011-04-24T22:49:27Z</time>
      </trkpt><trkpt lat="47.8260170761" lon="8.0342883803">
        <ele>1282.5</ele>
        <time>2011-04-24T22:49:49Z</time>
      </trkpt><trkpt lat="47.826175997" lon="8.03416013718">
        <ele>1283.5</ele>
        <time>2011-04-24T22:50:11Z</time>
      </trkpt><trkpt lat="47.826263085" lon="8.03403273225">
        <ele>1285.4</ele>
        <time>2011-04-24T22:50:26Z</time>
      </trkpt><trkpt lat="47.8262855485" lon="8.03401898593">
        <ele>1285.4</ele>
        <time>2011-04-24T22:50:29Z</time>
      </trkpt><trkpt lat="47.8263339959" lon="8.03394019604">
        <ele>1285.9</ele>
        <time>2011-04-24T22:50:38Z</time>
      </trkpt><trkpt lat="47.8264286276" lon="8.03382678889">
        <ele>1285.9</ele>
        <time>2011-04-24T22:50:53Z</time>
      </trkpt><trkpt lat="47.8264891449" lon="8.03370013833">
        <ele>1286.4</ele>
        <time>2011-04-24T22:51:06Z</time>
      </trkpt><trkpt lat="47.8265349101" lon="8.03368957713">
        <ele>1286.9</ele>
        <time>2011-04-24T22:51:12Z</time>
      </trkpt><trkpt lat="47.8265769035" lon="8.03361388855">
        <ele>1286.9</ele>
        <time>2011-04-24T22:51:20Z</time>
      </trkpt><trkpt lat="47.8265991155" lon="8.03356820717">
        <ele>1287.3</ele>
        <time>2011-04-24T22:51:25Z</time>
      </trkpt><trkpt lat="47.8267270233" lon="8.03342747502">
        <ele>1288.3</ele>
        <time>2011-04-24T22:51:45Z</time>
      </trkpt><trkpt lat="47.8267733753" lon="8.03336729296">
        <ele>1288.3</ele>
        <time>2011-04-24T22:51:53Z</time>
      </trkpt><trkpt lat="47.826868007" lon="8.03320770152">
        <ele>1289.3</ele>
        <time>2011-04-24T22:52:10Z</time>
      </trkpt><trkpt lat="47.8268908896" lon="8.03313544951">
        <ele>1289.7</ele>
        <time>2011-04-24T22:52:17Z</time>
      </trkpt><trkpt lat="47.8269675002" lon="8.03298524581">
        <ele>1290.2</ele>
        <time>2011-04-24T22:52:33Z</time>
      </trkpt><trkpt lat="47.8270330466" lon="8.03280268796">
        <ele>1290.7</ele>
        <time>2011-04-24T22:52:50Z</time>
      </trkpt><trkpt lat="47.8271700069" lon="8.03261945955">
        <ele>1290.2</ele>
        <time>2011-04-24T22:53:13Z</time>
      </trkpt><trkpt lat="47.8271800652" lon="8.03260956891">
        <ele>1290.7</ele>
        <time>2011-04-24T22:53:15Z</time>
      </trkpt><trkpt lat="47.8272271715" lon="8.03256397136">
        <ele>1290.2</ele>
        <time>2011-04-24T22:53:22Z</time>
      </trkpt><trkpt lat="47.8272824083" lon="8.03250831552">
        <ele>1291.2</ele>
        <time>2011-04-24T22:53:30Z</time>
      </trkpt><trkpt lat="47.8273375612" lon="8.03236230277">
        <ele>1292.1</ele>
        <time>2011-04-24T22:53:44Z</time>
      </trkpt><trkpt lat="47.8273868468" lon="8.03232491948">
        <ele>1292.1</ele>
        <time>2011-04-24T22:53:51Z</time>
      </trkpt><trkpt lat="47.8273648024" lon="8.03234428167">
        <ele>1292.1</ele>
        <time>2011-04-24T22:53:54Z</time>
      </trkpt><trkpt lat="47.8273873497" lon="8.03228267469">
        <ele>1292.1</ele>
        <time>2011-04-24T22:54:00Z</time>
      </trkpt><trkpt lat="47.8274534829" lon="8.03226783872">
        <ele>1291.7</ele>
        <time>2011-04-24T22:54:08Z</time>
      </trkpt><trkpt lat="47.827629419" lon="8.03222274408">
        <ele>1290.7</ele>
        <time>2011-04-24T22:54:30Z</time>
      </trkpt><trkpt lat="47.8277369589" lon="8.0321638193">
        <ele>1291.7</ele>
        <time>2011-04-24T22:54:45Z</time>
      </trkpt><trkpt lat="47.8278439958" lon="8.03213699721">
        <ele>1291.7</ele>
        <time>2011-04-24T22:54:58Z</time>
      </trkpt><trkpt lat="47.8279660363" lon="8.03211897612">
        <ele>1291.2</ele>
        <time>2011-04-24T22:55:13Z</time>
      </trkpt><trkpt lat="47.8280843049" lon="8.03207874298">
        <ele>1290.2</ele>
        <time>2011-04-24T22:55:29Z</time>
      </trkpt><trkpt lat="47.82819218" lon="8.03198142909">
        <ele>1288.3</ele>
        <time>2011-04-24T22:55:44Z</time>
      </trkpt><trkpt lat="47.8282589" lon="8.03200548515">
        <ele>1287.3</ele>
        <time>2011-04-24T22:55:53Z</time>
      </trkpt><trkpt lat="47.8283215128" lon="8.03177540191">
        <ele>1284</ele>
        <time>2011-04-24T22:56:14Z</time>
      </trkpt><trkpt lat="47.8283801861" lon="8.03166828118">
        <ele>1282.1</ele>
        <time>2011-04-24T22:56:25Z</time>
      </trkpt><trkpt lat="47.8284108639" lon="8.03170147352">
        <ele>1281.1</ele>
        <time>2011-04-24T22:56:30Z</time>
      </trkpt><trkpt lat="47.8284183238" lon="8.03171806969">
        <ele>1281.1</ele>
        <time>2011-04-24T22:56:32Z</time>
      </trkpt><trkpt lat="47.8284233529" lon="8.03170323372">
        <ele>1280.6</ele>
        <time>2011-04-24T22:56:33Z</time>
      </trkpt><trkpt lat="47.8285624925" lon="8.03159535863">
        <ele>1278.7</ele>
        <time>2011-04-24T22:56:52Z</time>
      </trkpt><trkpt lat="47.82865813" lon="8.03157457151">
        <ele>1276.8</ele>
        <time>2011-04-24T22:57:05Z</time>
      </trkpt><trkpt lat="47.8287504148" lon="8.03160709329">
        <ele>1273.4</ele>
        <time>2011-04-24T22:57:16Z</time>
      </trkpt><trkpt lat="47.8288520034" lon="8.031677166">
        <ele>1270.5</ele>
        <time>2011-04-24T22:57:30Z</time>
      </trkpt><trkpt lat="47.8289558552" lon="8.03164405748">
        <ele>1268.1</ele>
        <time>2011-04-24T22:57:44Z</time>
      </trkpt><trkpt lat="47.8290203121" lon="8.03150349297">
        <ele>1266.7</ele>
        <time>2011-04-24T22:57:58Z</time>
      </trkpt><trkpt lat="47.8289659135" lon="8.03142696619">
        <ele>1267.2</ele>
        <time>2011-04-24T22:58:07Z</time>
      </trkpt><trkpt lat="47.8289014567" lon="8.03130945191">
        <ele>1267.6</ele>
        <time>2011-04-24T22:58:20Z</time>
      </trkpt><trkpt lat="47.828931883" lon="8.03126209415">
        <ele>1267.6</ele>
        <time>2011-04-24T22:58:25Z</time>
      </trkpt><trkpt lat="47.828962896" lon="8.03126544692">
        <ele>1267.2</ele>
        <time>2011-04-24T22:58:29Z</time>
      </trkpt><trkpt lat="47.8289822582" lon="8.03127617575">
        <ele>1267.2</ele>
        <time>2011-04-24T22:58:32Z</time>
      </trkpt><trkpt lat="47.8289605491" lon="8.03129880689">
        <ele>1266.2</ele>
        <time>2011-04-24T22:58:35Z</time>
      </trkpt><trkpt lat="47.828940684" lon="8.0312724039">
        <ele>1266.7</ele>
        <time>2011-04-24T22:58:38Z</time>
      </trkpt><trkpt lat="47.8289072402" lon="8.03109093569">
        <ele>1266.2</ele>
        <time>2011-04-24T22:58:54Z</time>
      </trkpt><trkpt lat="47.8288938291" lon="8.03105455823">
        <ele>1266.7</ele>
        <time>2011-04-24T22:58:58Z</time>
      </trkpt><trkpt lat="47.828861475" lon="8.03098842502">
        <ele>1266.7</ele>
        <time>2011-04-24T22:59:04Z</time>
      </trkpt><trkpt lat="47.8287717886" lon="8.03076957352">
        <ele>1266.7</ele>
        <time>2011-04-24T22:59:26Z</time>
      </trkpt><trkpt lat="47.8287130315" lon="8.03059263155">
        <ele>1266.2</ele>
        <time>2011-04-24T22:59:42Z</time>
      </trkpt><trkpt lat="47.8287226707" lon="8.03055223078">
        <ele>1266.7</ele>
        <time>2011-04-24T22:59:46Z</time>
      </trkpt><trkpt lat="47.8287356626" lon="8.0305501353">
        <ele>1266.7</ele>
        <time>2011-04-24T22:59:48Z</time>
      </trkpt><trkpt lat="47.8288552724" lon="8.03067008033">
        <ele>1266.2</ele>
        <time>2011-04-24T23:00:05Z</time>
      </trkpt><trkpt lat="47.828883687" lon="8.03078633733">
        <ele>1263.8</ele>
        <time>2011-04-24T23:00:16Z</time>
      </trkpt><trkpt lat="47.8289668355" lon="8.03094919771">
        <ele>1261.9</ele>
        <time>2011-04-24T23:00:33Z</time>
      </trkpt><trkpt lat="47.8290862776" lon="8.03104852326">
        <ele>1259.9</ele>
        <time>2011-04-24T23:00:50Z</time>
      </trkpt><trkpt lat="47.8290954977" lon="8.0310504511">
        <ele>1259.9</ele>
        <time>2011-04-24T23:00:51Z</time>
      </trkpt><trkpt lat="47.8291519918" lon="8.03099915385">
        <ele>1258.5</ele>
        <time>2011-04-24T23:00:59Z</time>
      </trkpt><trkpt lat="47.8291300312" lon="8.03096210584">
        <ele>1257.5</ele>
        <time>2011-04-24T23:01:03Z</time>
      </trkpt><trkpt lat="47.8291247506" lon="8.03084886633">
        <ele>1257.1</ele>
        <time>2011-04-24T23:01:13Z</time>
      </trkpt><trkpt lat="47.8291084059" lon="8.03081198595">
        <ele>1256.1</ele>
        <time>2011-04-24T23:01:17Z</time>
      </trkpt><trkpt lat="47.8291243315" lon="8.03078466095">
        <ele>1256.1</ele>
        <time>2011-04-24T23:01:20Z</time>
      </trkpt><trkpt lat="47.8291693423" lon="8.03051585332">
        <ele>1254.2</ele>
        <time>2011-04-24T23:01:43Z</time>
      </trkpt><trkpt lat="47.8292205557" lon="8.03023589775">
        <ele>1251.8</ele>
        <time>2011-04-24T23:02:07Z</time>
      </trkpt><trkpt lat="47.8292120062" lon="8.03012760356">
        <ele>1251.3</ele>
        <time>2011-04-24T23:02:16Z</time>
      </trkpt><trkpt lat="47.8292603698" lon="8.03004839458">
        <ele>1247.9</ele>
        <time>2011-04-24T23:02:25Z</time>
      </trkpt><trkpt lat="47.8293198813" lon="8.02989198826">
        <ele>1245</ele>
        <time>2011-04-24T23:02:40Z</time>
      </trkpt><trkpt lat="47.8294456098" lon="8.02971580066">
        <ele>1242.2</ele>
        <time>2011-04-24T23:03:02Z</time>
      </trkpt><trkpt lat="47.8295601066" lon="8.0295354221">
        <ele>1240.2</ele>
        <time>2011-04-24T23:03:23Z</time>
      </trkpt><trkpt lat="47.8295986634" lon="8.02950231358">
        <ele>1239.8</ele>
        <time>2011-04-24T23:03:28Z</time>
      </trkpt><trkpt lat="47.8296053689" lon="8.0293451529">
        <ele>1238.3</ele>
        <time>2011-04-24T23:03:41Z</time>
      </trkpt><trkpt lat="47.8296020161" lon="8.02929544821">
        <ele>1237.4</ele>
        <time>2011-04-24T23:03:45Z</time>
      </trkpt><trkpt lat="47.8296311852" lon="8.02927357145">
        <ele>1236.9</ele>
        <time>2011-04-24T23:03:49Z</time>
      </trkpt><trkpt lat="47.8296438418" lon="8.0292081926">
        <ele>1236.4</ele>
        <time>2011-04-24T23:03:55Z</time>
      </trkpt><trkpt lat="47.8296619467" lon="8.02915614098">
        <ele>1235.9</ele>
        <time>2011-04-24T23:04:00Z</time>
      </trkpt><trkpt lat="47.829689607" lon="8.02911682986">
        <ele>1235.4</ele>
        <time>2011-04-24T23:04:05Z</time>
      </trkpt><trkpt lat="47.8297424968" lon="8.02905773744">
        <ele>1235</ele>
        <time>2011-04-24T23:04:13Z</time>
      </trkpt><trkpt lat="47.8298129048" lon="8.02899420261">
        <ele>1234</ele>
        <time>2011-04-24T23:04:23Z</time>
      </trkpt><trkpt lat="47.8299859911" lon="8.02887031808">
        <ele>1231.6</ele>
        <time>2011-04-24T23:04:47Z</time>
      </trkpt><trkpt lat="47.8301649448" lon="8.0288307555">
        <ele>1229.2</ele>
        <time>2011-04-24T23:05:10Z</time>
      </trkpt><trkpt lat="47.8304095287" lon="8.02877987735">
        <ele>1226.8</ele>
        <time>2011-04-24T23:05:41Z</time>
      </trkpt><trkpt lat="47.8306255303" lon="8.02873645909">
        <ele>1225.8</ele>
        <time>2011-04-24T23:06:08Z</time>
      </trkpt><trkpt lat="47.8307675198" lon="8.02871542051">
        <ele>1225.8</ele>
        <time>2011-04-24T23:06:25Z</time>
      </trkpt><trkpt lat="47.8309649974" lon="8.02864518017">
        <ele>1224.4</ele>
        <time>2011-04-24T23:06:51Z</time>
      </trkpt><trkpt lat="47.8311164584" lon="8.02851023152">
        <ele>1224.4</ele>
        <time>2011-04-24T23:07:13Z</time>
      </trkpt><trkpt lat="47.8312732838" lon="8.02823320962">
        <ele>1222.9</ele>
        <time>2011-04-24T23:07:43Z</time>
      </trkpt><trkpt lat="47.8313935641" lon="8.02796943113">
        <ele>1222</ele>
        <time>2011-04-24T23:08:10Z</time>
      </trkpt><trkpt lat="47.8314242419" lon="8.02783163264">
        <ele>1221.5</ele>
        <time>2011-04-24T23:08:22Z</time>
      </trkpt><trkpt lat="47.8314400837" lon="8.02769031376">
        <ele>1221.5</ele>
        <time>2011-04-24T23:08:34Z</time>
      </trkpt><trkpt lat="47.8314744495" lon="8.02747288719">
        <ele>1221</ele>
        <time>2011-04-24T23:08:53Z</time>
      </trkpt><trkpt lat="47.8315114137" lon="8.0271606613">
        <ele>1218.6</ele>
        <time>2011-04-24T23:09:19Z</time>
      </trkpt><trkpt lat="47.8315090667" lon="8.02686419338">
        <ele>1216.7</ele>
        <time>2011-04-24T23:09:44Z</time>
      </trkpt><trkpt lat="47.8314607032" lon="8.02654006518">
        <ele>1215.2</ele>
        <time>2011-04-24T23:10:12Z</time>
      </trkpt><trkpt lat="47.8314379882" lon="8.02623881958">
        <ele>1214.3</ele>
        <time>2011-04-24T23:10:37Z</time>
      </trkpt><trkpt lat="47.8312807437" lon="8.02593464032">
        <ele>1213.8</ele>
        <time>2011-04-24T23:11:09Z</time>
      </trkpt><trkpt lat="47.8312171251" lon="8.02584369667">
        <ele>1213.8</ele>
        <time>2011-04-24T23:11:20Z</time>
      </trkpt><trkpt lat="47.8312058095" lon="8.02585903555">
        <ele>1213.8</ele>
        <time>2011-04-24T23:11:22Z</time>
      </trkpt><trkpt lat="47.8312048875" lon="8.02582617849">
        <ele>1213.8</ele>
        <time>2011-04-24T23:11:25Z</time>
      </trkpt><trkpt lat="47.8311750479" lon="8.02587714046">
        <ele>1213.8</ele>
        <time>2011-04-24T23:11:30Z</time>
      </trkpt><trkpt lat="47.8311903868" lon="8.02588518709">
        <ele>1213.8</ele>
        <time>2011-04-24T23:11:32Z</time>
      </trkpt><trkpt lat="47.8311779816" lon="8.02587646991">
        <ele>1213.8</ele>
        <time>2011-04-24T23:11:34Z</time>
      </trkpt><trkpt lat="47.8312515747" lon="8.02588677965">
        <ele>1213.8</ele>
        <time>2011-04-24T23:11:43Z</time>
      </trkpt><trkpt lat="47.8312893771" lon="8.02582894452">
        <ele>1213.8</ele>
        <time>2011-04-24T23:11:50Z</time>
      </trkpt><trkpt lat="47.8313030396" lon="8.02573070861">
        <ele>1213.8</ele>
        <time>2011-04-24T23:11:58Z</time>
      </trkpt><trkpt lat="47.8313031234" lon="8.02569994703">
        <ele>1213.8</ele>
        <time>2011-04-24T23:12:01Z</time>
      </trkpt><trkpt lat="47.8313700948" lon="8.02561294287">
        <ele>1214.3</ele>
        <time>2011-04-24T23:12:12Z</time>
      </trkpt><trkpt lat="47.8315298539" lon="8.02554312162">
        <ele>1214.8</ele>
        <time>2011-04-24T23:12:33Z</time>
      </trkpt><trkpt lat="47.8316649701" lon="8.02551361732">
        <ele>1213.8</ele>
        <time>2011-04-24T23:12:50Z</time>
      </trkpt><trkpt lat="47.8318686504" lon="8.02547070198">
        <ele>1213.3</ele>
        <time>2011-04-24T23:13:16Z</time>
      </trkpt><trkpt lat="47.8320850711" lon="8.02548537031">
        <ele>1211.4</ele>
        <time>2011-04-24T23:13:42Z</time>
      </trkpt><trkpt lat="47.8321820498" lon="8.02540222183">
        <ele>1210.4</ele>
        <time>2011-04-24T23:13:56Z</time>
      </trkpt><trkpt lat="47.8323502745" lon="8.02548000589">
        <ele>1210.9</ele>
        <time>2011-04-24T23:14:18Z</time>
      </trkpt><trkpt lat="47.8324988019" lon="8.02564454265">
        <ele>1211.4</ele>
        <time>2011-04-24T23:14:41Z</time>
      </trkpt><trkpt lat="47.8326205071" lon="8.02578862756">
        <ele>1211.4</ele>
        <time>2011-04-24T23:15:01Z</time>
      </trkpt><trkpt lat="47.8327392787" lon="8.02589474246">
        <ele>1212.8</ele>
        <time>2011-04-24T23:15:18Z</time>
      </trkpt><trkpt lat="47.8328570444" lon="8.02599230781">
        <ele>1214.8</ele>
        <time>2011-04-24T23:15:35Z</time>
      </trkpt><trkpt lat="47.8330023866" lon="8.02607243881">
        <ele>1217.2</ele>
        <time>2011-04-24T23:15:54Z</time>
      </trkpt><trkpt lat="47.8330890555" lon="8.02613815293">
        <ele>1219.1</ele>
        <time>2011-04-24T23:16:06Z</time>
      </trkpt><trkpt lat="47.8332587052" lon="8.0262291804">
        <ele>1221</ele>
        <time>2011-04-24T23:16:29Z</time>
      </trkpt><trkpt lat="47.8333369084" lon="8.02625231445">
        <ele>1222.9</ele>
        <time>2011-04-24T23:16:39Z</time>
      </trkpt><trkpt lat="47.8335161135" lon="8.02621811628">
        <ele>1225.8</ele>
        <time>2011-04-24T23:17:01Z</time>
      </trkpt><trkpt lat="47.8334913868" lon="8.02624535747">
        <ele>1225.3</ele>
        <time>2011-04-24T23:17:05Z</time>
      </trkpt><trkpt lat="47.8335640579" lon="8.02627318539">
        <ele>1226.3</ele>
        <time>2011-04-24T23:17:14Z</time>
      </trkpt><trkpt lat="47.8335092403" lon="8.02615684457">
        <ele>1227.3</ele>
        <time>2011-04-24T23:17:26Z</time>
      </trkpt><trkpt lat="47.8335989267" lon="8.0260226503">
        <ele>1230.1</ele>
        <time>2011-04-24T23:17:42Z</time>
      </trkpt><trkpt lat="47.8337488789" lon="8.02593321539">
        <ele>1232.5</ele>
        <time>2011-04-24T23:18:02Z</time>
      </trkpt><trkpt lat="47.8338710871" lon="8.02579223178">
        <ele>1234.5</ele>
        <time>2011-04-24T23:18:21Z</time>
      </trkpt><trkpt lat="47.8338943049" lon="8.02570816129">
        <ele>1236.9</ele>
        <time>2011-04-24T23:18:29Z</time>
      </trkpt><trkpt lat="47.8341048583" lon="8.02561721765">
        <ele>1239.3</ele>
        <time>2011-04-24T23:18:56Z</time>
      </trkpt><trkpt lat="47.8342227079" lon="8.02549073473">
        <ele>1240.7</ele>
        <time>2011-04-24T23:19:14Z</time>
      </trkpt><trkpt lat="47.8341656271" lon="8.02548721433">
        <ele>1241.2</ele>
        <time>2011-04-24T23:19:22Z</time>
      </trkpt><trkpt lat="47.8341924492" lon="8.02541336976">
        <ele>1244.1</ele>
        <time>2011-04-24T23:19:29Z</time>
      </trkpt><trkpt lat="47.834107792" lon="8.02535419352">
        <ele>1246.5</ele>
        <time>2011-04-24T23:19:40Z</time>
      </trkpt><trkpt lat="47.8340288345" lon="8.02522435784">
        <ele>1248.4</ele>
        <time>2011-04-24T23:19:55Z</time>
      </trkpt><trkpt lat="47.8339680657" lon="8.02514866926">
        <ele>1250.3</ele>
        <time>2011-04-24T23:20:05Z</time>
      </trkpt><trkpt lat="47.8340083826" lon="8.02500248887">
        <ele>1253.2</ele>
        <time>2011-04-24T23:20:18Z</time>
      </trkpt><trkpt lat="47.8340539802" lon="8.02484767511">
        <ele>1256.1</ele>
        <time>2011-04-24T23:20:32Z</time>
      </trkpt><trkpt lat="47.8342024237" lon="8.02482127212">
        <ele>1258</ele>
        <time>2011-04-24T23:20:51Z</time>
      </trkpt><trkpt lat="47.8342826385" lon="8.02481381223">
        <ele>1259.5</ele>
        <time>2011-04-24T23:21:01Z</time>
      </trkpt><trkpt lat="47.8343121428" lon="8.02476067096">
        <ele>1261.4</ele>
        <time>2011-04-24T23:21:07Z</time>
      </trkpt><trkpt lat="47.8343670443" lon="8.02472404204">
        <ele>1263.3</ele>
        <time>2011-04-24T23:21:14Z</time>
      </trkpt><trkpt lat="47.8343708999" lon="8.02465606481">
        <ele>1265.2</ele>
        <time>2011-04-24T23:21:20Z</time>
      </trkpt><trkpt lat="47.8343818802" lon="8.02452790551">
        <ele>1266.7</ele>
        <time>2011-04-24T23:21:31Z</time>
      </trkpt><trkpt lat="47.8343846463" lon="8.02443369292">
        <ele>1268.1</ele>
        <time>2011-04-24T23:21:38Z</time>
      </trkpt><trkpt lat="47.8342817165" lon="8.02426312119">
        <ele>1270</ele>
        <time>2011-04-24T23:21:58Z</time>
      </trkpt><trkpt lat="47.8342854045" lon="8.02418994717">
        <ele>1271</ele>
        <time>2011-04-24T23:22:04Z</time>
      </trkpt><trkpt lat="47.8342938703" lon="8.02406111732">
        <ele>1272.9</ele>
        <time>2011-04-24T23:22:15Z</time>
      </trkpt><trkpt lat="47.8343905136" lon="8.02389297634">
        <ele>1275.8</ele>
        <time>2011-04-24T23:22:33Z</time>
      </trkpt><trkpt lat="47.8345485125" lon="8.02386120893">
        <ele>1277.7</ele>
        <time>2011-04-24T23:22:53Z</time>
      </trkpt><trkpt lat="47.8345489316" lon="8.02379113622">
        <ele>1279.7</ele>
        <time>2011-04-24T23:22:59Z</time>
      </trkpt><trkpt lat="47.8346794378" lon="8.02382181399">
        <ele>1282.5</ele>
        <time>2011-04-24T23:23:15Z</time>
      </trkpt><trkpt lat="47.834838694" lon="8.02384511568">
        <ele>1283.5</ele>
        <time>2011-04-24T23:23:35Z</time>
      </trkpt><trkpt lat="47.8347862232" lon="8.02380245179">
        <ele>1286.4</ele>
        <time>2011-04-24T23:23:43Z</time>
      </trkpt><trkpt lat="47.8349411208" lon="8.02380882204">
        <ele>1288.3</ele>
        <time>2011-04-24T23:24:02Z</time>
      </trkpt><trkpt lat="47.8349717986" lon="8.02384209819">
        <ele>1289.7</ele>
        <time>2011-04-24T23:24:07Z</time>
      </trkpt><trkpt lat="47.835088307" lon="8.0239742808">
        <ele>1292.6</ele>
        <time>2011-04-24T23:24:25Z</time>
      </trkpt><trkpt lat="47.8351307195" lon="8.02405734546">
        <ele>1292.6</ele>
        <time>2011-04-24T23:24:34Z</time>
      </trkpt><trkpt lat="47.835186962" lon="8.02399733104">
        <ele>1292.6</ele>
        <time>2011-04-24T23:24:42Z</time>
      </trkpt><trkpt lat="47.8353063203" lon="8.02389683202">
        <ele>1295</ele>
        <time>2011-04-24T23:24:59Z</time>
      </trkpt><trkpt lat="47.8353173006" lon="8.02381946705">
        <ele>1296.5</ele>
        <time>2011-04-24T23:25:06Z</time>
      </trkpt><trkpt lat="47.8353425302" lon="8.02369658835">
        <ele>1297</ele>
        <time>2011-04-24T23:25:17Z</time>
      </trkpt><trkpt lat="47.8354413528" lon="8.02362416871">
        <ele>1297.4</ele>
        <time>2011-04-24T23:25:30Z</time>
      </trkpt><trkpt lat="47.8355254233" lon="8.0235417746">
        <ele>1299.8</ele>
        <time>2011-04-24T23:25:43Z</time>
      </trkpt><trkpt lat="47.8356089909" lon="8.02342819981">
        <ele>1301.8</ele>
        <time>2011-04-24T23:25:57Z</time>
      </trkpt><trkpt lat="47.8356496431" lon="8.02332468331">
        <ele>1303.7</ele>
        <time>2011-04-24T23:26:07Z</time>
      </trkpt><trkpt lat="47.8356344718" lon="8.02319887094">
        <ele>1304.6</ele>
        <time>2011-04-24T23:26:18Z</time>
      </trkpt><trkpt lat="47.8357442748" lon="8.0230137147">
        <ele>1304.6</ele>
        <time>2011-04-24T23:26:38Z</time>
      </trkpt><trkpt lat="47.835763637" lon="8.02284976467">
        <ele>1304.2</ele>
        <time>2011-04-24T23:26:52Z</time>
      </trkpt><trkpt lat="47.8358424269" lon="8.02274348214">
        <ele>1305.1</ele>
        <time>2011-04-24T23:27:06Z</time>
      </trkpt><trkpt lat="47.8359232284" lon="8.02266234532">
        <ele>1305.1</ele>
        <time>2011-04-24T23:27:18Z</time>
      </trkpt><trkpt lat="47.8360940516" lon="8.02266946994">
        <ele>1305.1</ele>
        <time>2011-04-24T23:27:39Z</time>
      </trkpt><trkpt lat="47.8361396492" lon="8.02244718187">
        <ele>1306.6</ele>
        <time>2011-04-24T23:27:58Z</time>
      </trkpt><trkpt lat="47.8362185229" lon="8.02238104865">
        <ele>1306.6</ele>
        <time>2011-04-24T23:28:10Z</time>
      </trkpt><trkpt lat="47.8363336064" lon="8.02229446359">
        <ele>1306.6</ele>
        <time>2011-04-24T23:28:26Z</time>
      </trkpt><trkpt lat="47.8365406394" lon="8.02217946388">
        <ele>1308.5</ele>
        <time>2011-04-24T23:28:53Z</time>
      </trkpt><trkpt lat="47.8365429025" lon="8.02212523296">
        <ele>1309</ele>
        <time>2011-04-24T23:28:58Z</time>
      </trkpt><trkpt lat="47.8365794476" lon="8.0220580101">
        <ele>1309</ele>
        <time>2011-04-24T23:29:05Z</time>
      </trkpt><trkpt lat="47.8367128875" lon="8.02191711031">
        <ele>1308</ele>
        <time>2011-04-24T23:29:25Z</time>
      </trkpt><trkpt lat="47.8367211856" lon="8.02171804011">
        <ele>1307.5</ele>
        <time>2011-04-24T23:29:42Z</time>
      </trkpt><trkpt lat="47.8367730696" lon="8.02163111977">
        <ele>1306.1</ele>
        <time>2011-04-24T23:29:52Z</time>
      </trkpt><trkpt lat="47.8369318228" lon="8.02149566822">
        <ele>1305.6</ele>
        <time>2011-04-24T23:30:15Z</time>
      </trkpt><trkpt lat="47.8370384406" lon="8.02136516199">
        <ele>1305.1</ele>
        <time>2011-04-24T23:30:32Z</time>
      </trkpt><trkpt lat="47.8369273804" lon="8.02131252363">
        <ele>1306.1</ele>
        <time>2011-04-24T23:30:46Z</time>
      </trkpt><trkpt lat="47.8369498439" lon="8.02119869739">
        <ele>1306.1</ele>
        <time>2011-04-24T23:30:56Z</time>
      </trkpt><trkpt lat="47.8369551245" lon="8.02117732354">
        <ele>1306.6</ele>
        <time>2011-04-24T23:30:58Z</time>
      </trkpt><trkpt lat="47.8370286338" lon="8.02104413509">
        <ele>1306.1</ele>
        <time>2011-04-24T23:31:13Z</time>
      </trkpt><trkpt lat="47.8371188231" lon="8.02097666077">
        <ele>1306.1</ele>
        <time>2011-04-24T23:31:25Z</time>
      </trkpt><trkpt lat="47.8373644967" lon="8.0209688656">
        <ele>1306.1</ele>
        <time>2011-04-24T23:31:56Z</time>
      </trkpt><trkpt lat="47.837773785" lon="8.02099124528">
        <ele>1307.5</ele>
        <time>2011-04-24T23:32:47Z</time>
      </trkpt><trkpt lat="47.8379333764" lon="8.02097523585">
        <ele>1309</ele>
        <time>2011-04-24T23:33:07Z</time>
      </trkpt><trkpt lat="47.8380787186" lon="8.02083819173">
        <ele>1310.9</ele>
        <time>2011-04-24T23:33:28Z</time>
      </trkpt><trkpt lat="47.838083161" lon="8.02081455477">
        <ele>1310.9</ele>
        <time>2011-04-24T23:33:30Z</time>
      </trkpt><trkpt lat="47.8382175229" lon="8.02059947513">
        <ele>1312.8</ele>
        <time>2011-04-24T23:33:55Z</time>
      </trkpt><trkpt lat="47.8382350411" lon="8.02031172439">
        <ele>1314.7</ele>
        <time>2011-04-24T23:34:19Z</time>
      </trkpt><trkpt lat="47.8383342829" lon="8.02017593756">
        <ele>1317.1</ele>
        <time>2011-04-24T23:34:36Z</time>
      </trkpt><trkpt lat="47.8383739293" lon="8.02014215849">
        <ele>1317.6</ele>
        <time>2011-04-24T23:34:41Z</time>
      </trkpt><trkpt lat="47.838583393" lon="8.02001114935">
        <ele>1318.1</ele>
        <time>2011-04-24T23:35:10Z</time>
      </trkpt><trkpt lat="47.8386664577" lon="8.01996530034">
        <ele>1318.1</ele>
        <time>2011-04-24T23:35:21Z</time>
      </trkpt><trkpt lat="47.8388546314" lon="8.01987930201">
        <ele>1318.1</ele>
        <time>2011-04-24T23:35:45Z</time>
      </trkpt><trkpt lat="47.8389047552" lon="8.01985985599">
        <ele>1318.1</ele>
        <time>2011-04-24T23:35:52Z</time>
      </trkpt><trkpt lat="47.8389568906" lon="8.01975742914">
        <ele>1318.1</ele>
        <time>2011-04-24T23:36:03Z</time>
      </trkpt><trkpt lat="47.8390342556" lon="8.01978567615">
        <ele>1318.6</ele>
        <time>2011-04-24T23:36:12Z</time>
      </trkpt><trkpt lat="47.8391791787" lon="8.01973320544">
        <ele>1320</ele>
        <time>2011-04-24T23:36:31Z</time>
      </trkpt><trkpt lat="47.8393143788" lon="8.01962231286">
        <ele>1321</ele>
        <time>2011-04-24T23:36:50Z</time>
      </trkpt><trkpt lat="47.839311948" lon="8.01960194483">
        <ele>1321</ele>
        <time>2011-04-24T23:36:52Z</time>
      </trkpt><trkpt lat="47.8391242772" lon="8.01954360679">
        <ele>1321.9</ele>
        <time>2011-04-24T23:37:16Z</time>
      </trkpt><trkpt lat="47.8390728962" lon="8.01951628178">
        <ele>1322.9</ele>
        <time>2011-04-24T23:37:23Z</time>
      </trkpt><trkpt lat="47.8390466608" lon="8.01950060762">
        <ele>1323.4</ele>
        <time>2011-04-24T23:37:26Z</time>
      </trkpt><trkpt lat="47.8390195034" lon="8.01943682134">
        <ele>1324.4</ele>
        <time>2011-04-24T23:37:32Z</time>
      </trkpt><trkpt lat="47.8389610816" lon="8.01934436895">
        <ele>1325.3</ele>
        <time>2011-04-24T23:37:43Z</time>
      </trkpt><trkpt lat="47.8388464171" lon="8.01924294792">
        <ele>1326.8</ele>
        <time>2011-04-24T23:38:00Z</time>
      </trkpt><trkpt lat="47.8387522046" lon="8.01922031678">
        <ele>1328.7</ele>
        <time>2011-04-24T23:38:12Z</time>
      </trkpt><trkpt lat="47.8386857361" lon="8.01920749247">
        <ele>1329.6</ele>
        <time>2011-04-24T23:38:20Z</time>
      </trkpt><trkpt lat="47.8386450838" lon="8.01913641393">
        <ele>1330.1</ele>
        <time>2011-04-24T23:38:28Z</time>
      </trkpt><trkpt lat="47.8386345226" lon="8.01909592934">
        <ele>1331.1</ele>
        <time>2011-04-24T23:38:31Z</time>
      </trkpt><trkpt lat="47.8386447486" lon="8.01909475587">
        <ele>1330.6</ele>
        <time>2011-04-24T23:38:33Z</time>
      </trkpt><trkpt lat="47.83859035" lon="8.0189676024">
        <ele>1332.5</ele>
        <time>2011-04-24T23:38:45Z</time>
      </trkpt><trkpt lat="47.8385055251" lon="8.0188724678">
        <ele>1333</ele>
        <time>2011-04-24T23:38:59Z</time>
      </trkpt><trkpt lat="47.8384265676" lon="8.01876123995">
        <ele>1333.5</ele>
        <time>2011-04-24T23:39:12Z</time>
      </trkpt><trkpt lat="47.8383227158" lon="8.0186077673">
        <ele>1335.4</ele>
        <time>2011-04-24T23:39:30Z</time>
      </trkpt><trkpt lat="47.8382763639" lon="8.01854263991">
        <ele>1336.4</ele>
        <time>2011-04-24T23:39:38Z</time>
      </trkpt><trkpt lat="47.8382033575" lon="8.0184227787">
        <ele>1338.3</ele>
        <time>2011-04-24T23:39:52Z</time>
      </trkpt><trkpt lat="47.838136889" lon="8.01832295023">
        <ele>1340.2</ele>
        <time>2011-04-24T23:40:04Z</time>
      </trkpt><trkpt lat="47.8380458616" lon="8.01825162023">
        <ele>1342.1</ele>
        <time>2011-04-24T23:40:16Z</time>
      </trkpt><trkpt lat="47.837964138" lon="8.0180365406">
        <ele>1345</ele>
        <time>2011-04-24T23:40:37Z</time>
      </trkpt><trkpt lat="47.8377933986" lon="8.01782598719">
        <ele>1346.5</ele>
        <time>2011-04-24T23:41:05Z</time>
      </trkpt><trkpt lat="47.8376571089" lon="8.01754795946">
        <ele>1348.4</ele>
        <time>2011-04-24T23:41:33Z</time>
      </trkpt><trkpt lat="47.8375700209" lon="8.017368">
        <ele>1349.3</ele>
        <time>2011-04-24T23:41:52Z</time>
      </trkpt><trkpt lat="47.8374897223" lon="8.0171878729">
        <ele>1350.8</ele>
        <time>2011-04-24T23:42:10Z</time>
      </trkpt><trkpt lat="47.837458374" lon="8.01704932004">
        <ele>1351.3</ele>
        <time>2011-04-24T23:42:22Z</time>
      </trkpt><trkpt lat="47.8374659177" lon="8.01702165976">
        <ele>1351.3</ele>
        <time>2011-04-24T23:42:25Z</time>
      </trkpt><trkpt lat="47.8373582102" lon="8.01683172584">
        <ele>1353.2</ele>
        <time>2011-04-24T23:42:46Z</time>
      </trkpt><trkpt lat="47.8372733016" lon="8.01677162759">
        <ele>1353.2</ele>
        <time>2011-04-24T23:42:57Z</time>
      </trkpt><trkpt lat="47.8371200804" lon="8.01661421545">
        <ele>1354.2</ele>
        <time>2011-04-24T23:43:20Z</time>
      </trkpt><trkpt lat="47.8369952738" lon="8.01645395346">
        <ele>1356.1</ele>
        <time>2011-04-24T23:43:41Z</time>
      </trkpt><trkpt lat="47.8369142208" lon="8.01639720798">
        <ele>1357.5</ele>
        <time>2011-04-24T23:43:52Z</time>
      </trkpt><trkpt lat="47.8368723951" lon="8.01627080888">
        <ele>1358.5</ele>
        <time>2011-04-24T23:44:04Z</time>
      </trkpt><trkpt lat="47.8368415497" lon="8.01620316692">
        <ele>1358.5</ele>
        <time>2011-04-24T23:44:11Z</time>
      </trkpt><trkpt lat="47.8368416335" lon="8.01627793349">
        <ele>1359</ele>
        <time>2011-04-24T23:44:17Z</time>
      </trkpt><trkpt lat="47.8368412144" lon="8.01627600566">
        <ele>1358.5</ele>
        <time>2011-04-24T23:44:17Z</time>
      </trkpt><trkpt lat="47.8367443196" lon="8.01630433649">
        <ele>1359.4</ele>
        <time>2011-04-24T23:44:29Z</time>
      </trkpt><trkpt lat="47.8366850596" lon="8.01620568149">
        <ele>1361.4</ele>
        <time>2011-04-24T23:44:41Z</time>
      </trkpt><trkpt lat="47.8366361931" lon="8.01610157825">
        <ele>1363.8</ele>
        <time>2011-04-24T23:44:51Z</time>
      </trkpt><trkpt lat="47.836602414" lon="8.01602790132">
        <ele>1364.7</ele>
        <time>2011-04-24T23:44:59Z</time>
      </trkpt><trkpt lat="47.8365105484" lon="8.01593586802">
        <ele>1365.7</ele>
        <time>2011-04-24T23:45:12Z</time>
      </trkpt><trkpt lat="47.836429663" lon="8.01581852138">
        <ele>1367.1</ele>
        <time>2011-04-24T23:45:26Z</time>
      </trkpt><trkpt lat="47.8363348637" lon="8.01561257802">
        <ele>1368.6</ele>
        <time>2011-04-24T23:45:47Z</time>
      </trkpt><trkpt lat="47.8362160083" lon="8.01544804126">
        <ele>1369.5</ele>
        <time>2011-04-24T23:46:08Z</time>
      </trkpt><trkpt lat="47.8361839056" lon="8.01538995467">
        <ele>1370</ele>
        <time>2011-04-24T23:46:14Z</time>
      </trkpt><trkpt lat="47.836070247" lon="8.01525861025">
        <ele>1370.5</ele>
        <time>2011-04-24T23:46:32Z</time>
      </trkpt><trkpt lat="47.8359517269" lon="8.01519691944">
        <ele>1371.9</ele>
        <time>2011-04-24T23:46:47Z</time>
      </trkpt><trkpt lat="47.8358992562" lon="8.01524821669">
        <ele>1373.4</ele>
        <time>2011-04-24T23:46:55Z</time>
      </trkpt><trkpt lat="47.8358948976" lon="8.01525819115">
        <ele>1373.4</ele>
        <time>2011-04-24T23:46:56Z</time>
      </trkpt><trkpt lat="47.8358065523" lon="8.01539682783">
        <ele>1375.8</ele>
        <time>2011-04-24T23:47:12Z</time>
      </trkpt><trkpt lat="47.8357167821" lon="8.01551358774">
        <ele>1377.2</ele>
        <time>2011-04-24T23:47:27Z</time>
      </trkpt><trkpt lat="47.8356186301" lon="8.01561308093">
        <ele>1378.7</ele>
        <time>2011-04-24T23:47:42Z</time>
      </trkpt><trkpt lat="47.8355515748" lon="8.01572145894">
        <ele>1380.1</ele>
        <time>2011-04-24T23:47:54Z</time>
      </trkpt><trkpt lat="47.8355293628" lon="8.01593704149">
        <ele>1381.6</ele>
        <time>2011-04-24T23:48:12Z</time>
      </trkpt><trkpt lat="47.835529279" lon="8.01596386358">
        <ele>1382</ele>
        <time>2011-04-24T23:48:15Z</time>
      </trkpt><trkpt lat="47.8355148621" lon="8.0160745047">
        <ele>1383.5</ele>
        <time>2011-04-24T23:48:24Z</time>
      </trkpt><trkpt lat="47.8354887106" lon="8.01623476669">
        <ele>1384.9</ele>
        <time>2011-04-24T23:48:38Z</time>
      </trkpt><trkpt lat="47.8354729526" lon="8.01638538949">
        <ele>1386.8</ele>
        <time>2011-04-24T23:48:51Z</time>
      </trkpt><trkpt lat="47.8354488965" lon="8.01651899703">
        <ele>1388.8</ele>
        <time>2011-04-24T23:49:02Z</time>
      </trkpt><trkpt lat="47.8354053106" lon="8.01665553823">
        <ele>1391.2</ele>
        <time>2011-04-24T23:49:15Z</time>
      </trkpt><trkpt lat="47.8353733756" lon="8.01670901477">
        <ele>1392.1</ele>
        <time>2011-04-24T23:49:21Z</time>
      </trkpt><trkpt lat="47.8353571147" lon="8.01678218879">
        <ele>1392.1</ele>
        <time>2011-04-24T23:49:27Z</time>
      </trkpt><trkpt lat="47.8353293706" lon="8.01684916019">
        <ele>1392.6</ele>
        <time>2011-04-24T23:49:34Z</time>
      </trkpt><trkpt lat="47.8353131097" lon="8.01686156541">
        <ele>1392.6</ele>
        <time>2011-04-24T23:49:36Z</time>
      </trkpt><trkpt lat="47.8352765646" lon="8.01691898145">
        <ele>1393.1</ele>
        <time>2011-04-24T23:49:43Z</time>
      </trkpt><trkpt lat="47.8352692723" lon="8.01693733782">
        <ele>1393.1</ele>
        <time>2011-04-24T23:49:45Z</time>
      </trkpt><trkpt lat="47.835180508" lon="8.01707404666">
        <ele>1395</ele>
        <time>2011-04-24T23:50:00Z</time>
      </trkpt><trkpt lat="47.8350914922" lon="8.0172204785">
        <ele>1396</ele>
        <time>2011-04-24T23:50:17Z</time>
      </trkpt><trkpt lat="47.8349935915" lon="8.01742457785">
        <ele>1397.9</ele>
        <time>2011-04-24T23:50:38Z</time>
      </trkpt><trkpt lat="47.8349194117" lon="8.01758358255">
        <ele>1399.3</ele>
        <time>2011-04-24T23:50:54Z</time>
      </trkpt><trkpt lat="47.834859062" lon="8.01776060835">
        <ele>1400.3</ele>
        <time>2011-04-24T23:51:11Z</time>
      </trkpt><trkpt lat="47.834827546" lon="8.01792631857">
        <ele>1402.2</ele>
        <time>2011-04-24T23:51:25Z</time>
      </trkpt><trkpt lat="47.8348446451" lon="8.018022459">
        <ele>1403.7</ele>
        <time>2011-04-24T23:51:33Z</time>
      </trkpt><trkpt lat="47.8348899074" lon="8.01814894192">
        <ele>1406.5</ele>
        <time>2011-04-24T23:51:45Z</time>
      </trkpt><trkpt lat="47.8349572141" lon="8.01830526441">
        <ele>1408.9</ele>
        <time>2011-04-24T23:52:01Z</time>
      </trkpt><trkpt lat="47.834999375" lon="8.01838967018">
        <ele>1409.9</ele>
        <time>2011-04-24T23:52:10Z</time>
      </trkpt><trkpt lat="47.8350531869" lon="8.0185258761">
        <ele>1411.4</ele>
        <time>2011-04-24T23:52:23Z</time>
      </trkpt><trkpt lat="47.8350738902" lon="8.01856141537">
        <ele>1411.8</ele>
        <time>2011-04-24T23:52:27Z</time>
      </trkpt><trkpt lat="47.8351686057" lon="8.01873953082">
        <ele>1413.3</ele>
        <time>2011-04-24T23:52:46Z</time>
      </trkpt><trkpt lat="47.8352472279" lon="8.01893432625">
        <ele>1413.8</ele>
        <time>2011-04-24T23:53:05Z</time>
      </trkpt><trkpt lat="47.8352965973" lon="8.01902619191">
        <ele>1413.8</ele>
        <time>2011-04-24T23:53:15Z</time>
      </trkpt><trkpt lat="47.8353199828" lon="8.01912384108">
        <ele>1414.2</ele>
        <time>2011-04-24T23:53:23Z</time>
      </trkpt><trkpt lat="47.8353613056" lon="8.01931779832">
        <ele>1415.2</ele>
        <time>2011-04-24T23:53:40Z</time>
      </trkpt><trkpt lat="47.8353721183" lon="8.01938443445">
        <ele>1415.2</ele>
        <time>2011-04-24T23:53:46Z</time>
      </trkpt><trkpt lat="47.8353642393" lon="8.0194110889">
        <ele>1415.2</ele>
        <time>2011-04-24T23:53:49Z</time>
      </trkpt><trkpt lat="47.835316211" lon="8.01966933534">
        <ele>1413.8</ele>
        <time>2011-04-24T23:54:11Z</time>
      </trkpt><trkpt lat="47.8352954239" lon="8.01991936751">
        <ele>1412.8</ele>
        <time>2011-04-24T23:54:32Z</time>
      </trkpt><trkpt lat="47.8353185579" lon="8.02000670694">
        <ele>1414.2</ele>
        <time>2011-04-24T23:54:40Z</time>
      </trkpt><trkpt lat="47.8352862876" lon="8.02002464421">
        <ele>1414.2</ele>
        <time>2011-04-24T23:54:44Z</time>
      </trkpt><trkpt lat="47.8352680989" lon="8.01999396645">
        <ele>1413.3</ele>
        <time>2011-04-24T23:54:48Z</time>
      </trkpt><trkpt lat="47.8352675121" lon="8.0199479498">
        <ele>1412.8</ele>
        <time>2011-04-24T23:54:52Z</time>
      </trkpt><trkpt lat="47.8352608066" lon="8.0199149251">
        <ele>1413.3</ele>
        <time>2011-04-24T23:54:54Z</time>
      </trkpt><trkpt lat="47.8352121077" lon="8.01990210079">
        <ele>1411.8</ele>
        <time>2011-04-24T23:55:01Z</time>
      </trkpt><trkpt lat="47.8352481499" lon="8.01986899227">
        <ele>1411.8</ele>
        <time>2011-04-24T23:55:06Z</time>
      </trkpt><trkpt lat="47.8352965973" lon="8.0198123306">
        <ele>1411.4</ele>
        <time>2011-04-24T23:55:14Z</time>
      </trkpt><trkpt lat="47.8353740461" lon="8.01966749132">
        <ele>1412.8</ele>
        <time>2011-04-24T23:55:29Z</time>
      </trkpt><trkpt lat="47.8353780694" lon="8.01963698119">
        <ele>1412.8</ele>
        <time>2011-04-24T23:55:32Z</time>
      </trkpt><trkpt lat="47.8353820089" lon="8.01947588101">
        <ele>1414.7</ele>
        <time>2011-04-24T23:55:45Z</time>
      </trkpt><trkpt lat="47.8353654128" lon="8.01943464205">
        <ele>1414.7</ele>
        <time>2011-04-24T23:55:49Z</time>
      </trkpt><trkpt lat="47.8353684302" lon="8.01920564845">
        <ele>1413.3</ele>
        <time>2011-04-24T23:56:08Z</time>
      </trkpt><trkpt lat="47.8352893889" lon="8.01898662932">
        <ele>1412.8</ele>
        <time>2011-04-24T23:56:29Z</time>
      </trkpt><trkpt lat="47.8351515904" lon="8.01868697628">
        <ele>1412.3</ele>
        <time>2011-04-24T23:56:59Z</time>
      </trkpt><trkpt lat="47.8350557014" lon="8.01848430187">
        <ele>1409.9</ele>
        <time>2011-04-24T23:57:20Z</time>
      </trkpt><trkpt lat="47.8350399435" lon="8.0184360221">
        <ele>1409.4</ele>
        <time>2011-04-24T23:57:25Z</time>
      </trkpt><trkpt lat="47.8350326512" lon="8.01840567961">
        <ele>1409.4</ele>
        <time>2011-04-24T23:57:27Z</time>
      </trkpt><trkpt lat="47.8349415399" lon="8.01821918227">
        <ele>1406.5</ele>
        <time>2011-04-24T23:57:47Z</time>
      </trkpt><trkpt lat="47.8349117003" lon="8.01813142374">
        <ele>1405.6</ele>
        <time>2011-04-24T23:57:55Z</time>
      </trkpt><trkpt lat="47.8348621633" lon="8.01798256114">
        <ele>1402.2</ele>
        <time>2011-04-24T23:58:09Z</time>
      </trkpt><trkpt lat="47.8347894922" lon="8.01784786396">
        <ele>1399.8</ele>
        <time>2011-04-24T23:58:23Z</time>
      </trkpt><trkpt lat="47.8347941861" lon="8.01781048067">
        <ele>1399.3</ele>
        <time>2011-04-24T23:58:26Z</time>
      </trkpt><trkpt lat="47.8347241972" lon="8.01767544821">
        <ele>1396</ele>
        <time>2011-04-24T23:58:41Z</time>
      </trkpt><trkpt lat="47.8346986324" lon="8.01762892865">
        <ele>1394.5</ele>
        <time>2011-04-24T23:58:46Z</time>
      </trkpt><trkpt lat="47.8346361034" lon="8.01751527004">
        <ele>1391.2</ele>
        <time>2011-04-24T23:58:58Z</time>
      </trkpt><trkpt lat="47.8345919307" lon="8.01748936996">
        <ele>1390.2</ele>
        <time>2011-04-24T23:59:04Z</time>
      </trkpt><trkpt lat="47.8344957903" lon="8.01741275936">
        <ele>1386.8</ele>
        <time>2011-04-24T23:59:17Z</time>
      </trkpt><trkpt lat="47.8344284836" lon="8.01734779961">
        <ele>1384</ele>
        <time>2011-04-24T23:59:27Z</time>
      </trkpt><trkpt lat="47.834361596" lon="8.01725668833">
        <ele>1381.1</ele>
        <time>2011-04-24T23:59:39Z</time>
      </trkpt><trkpt lat="47.8343363665" lon="8.01714143716">
        <ele>1378.2</ele>
        <time>2011-04-24T23:59:49Z</time>
      </trkpt><trkpt lat="47.8342982288" lon="8.01707622595">
        <ele>1376.3</ele>
        <time>2011-04-24T23:59:56Z</time>
      </trkpt><trkpt lat="47.8342222888" lon="8.0169993639">
        <ele>1373.4</ele>
        <time>2011-04-25T00:00:08Z</time>
      </trkpt><trkpt lat="47.8341653757" lon="8.01690112799">
        <ele>1370.5</ele>
        <time>2011-04-25T00:00:18Z</time>
      </trkpt><trkpt lat="47.8340885974" lon="8.01682082936">
        <ele>1367.1</ele>
        <time>2011-04-25T00:00:30Z</time>
      </trkpt><trkpt lat="47.8340438381" lon="8.01673541777">
        <ele>1363.8</ele>
        <time>2011-04-25T00:00:39Z</time>
      </trkpt><trkpt lat="47.833965132" lon="8.01666534506">
        <ele>1361.8</ele>
        <time>2011-04-25T00:00:51Z</time>
      </trkpt><trkpt lat="47.8339009266" lon="8.01660868339">
        <ele>1358.5</ele>
        <time>2011-04-25T00:01:00Z</time>
      </trkpt><trkpt lat="47.8338116594" lon="8.01648697816">
        <ele>1355.1</ele>
        <time>2011-04-25T00:01:15Z</time>
      </trkpt><trkpt lat="47.8338063788" lon="8.01641489379">
        <ele>1354.6</ele>
        <time>2011-04-25T00:01:21Z</time>
      </trkpt><trkpt lat="47.833801182" lon="8.01637466066">
        <ele>1353.7</ele>
        <time>2011-04-25T00:01:24Z</time>
      </trkpt><trkpt lat="47.8337182011" lon="8.01632110029">
        <ele>1352.2</ele>
        <time>2011-04-25T00:01:36Z</time>
      </trkpt><trkpt lat="47.8336241562" lon="8.01625949331">
        <ele>1349.8</ele>
        <time>2011-04-25T00:01:49Z</time>
      </trkpt><trkpt lat="47.8334972542" lon="8.01625982858">
        <ele>1346.9</ele>
        <time>2011-04-25T00:02:04Z</time>
      </trkpt><trkpt lat="47.833380159" lon="8.01625136286">
        <ele>1344.1</ele>
        <time>2011-04-25T00:02:19Z</time>
      </trkpt><trkpt lat="47.8332783189" lon="8.01620777696">
        <ele>1340.7</ele>
        <time>2011-04-25T00:02:32Z</time>
      </trkpt><trkpt lat="47.8332058154" lon="8.01611431874">
        <ele>1337.8</ele>
        <time>2011-04-25T00:02:44Z</time>
      </trkpt><trkpt lat="47.8331297915" lon="8.01601583138">
        <ele>1334.4</ele>
        <time>2011-04-25T00:02:57Z</time>
      </trkpt><trkpt lat="47.8330132831" lon="8.01591910422">
        <ele>1331.6</ele>
        <time>2011-04-25T00:03:13Z</time>
      </trkpt><trkpt lat="47.8329052404" lon="8.01584249362">
        <ele>1328.7</ele>
        <time>2011-04-25T00:03:28Z</time>
      </trkpt><trkpt lat="47.8328438848" lon="8.01575381309">
        <ele>1326.3</ele>
        <time>2011-04-25T00:03:39Z</time>
      </trkpt><trkpt lat="47.8326684516" lon="8.01566546783">
        <ele>1322.9</ele>
        <time>2011-04-25T00:04:02Z</time>
      </trkpt><trkpt lat="47.8326459043" lon="8.01565750502">
        <ele>1322.9</ele>
        <time>2011-04-25T00:04:05Z</time>
      </trkpt><trkpt lat="47.8324734047" lon="8.01563998684">
        <ele>1321</ele>
        <time>2011-04-25T00:04:26Z</time>
      </trkpt><trkpt lat="47.8323002346" lon="8.0156243965">
        <ele>1319.5</ele>
        <time>2011-04-25T00:04:48Z</time>
      </trkpt><trkpt lat="47.8322248813" lon="8.01560620777">
        <ele>1318.1</ele>
        <time>2011-04-25T00:04:57Z</time>
      </trkpt><trkpt lat="47.8322260547" lon="8.01558097824">
        <ele>1317.6</ele>
        <time>2011-04-25T00:05:00Z</time>
      </trkpt><trkpt lat="47.8322250489" lon="8.01563755609">
        <ele>1317.6</ele>
        <time>2011-04-25T00:05:04Z</time>
      </trkpt><trkpt lat="47.8321579099" lon="8.01575775258">
        <ele>1318.1</ele>
        <time>2011-04-25T00:05:17Z</time>
      </trkpt><trkpt lat="47.8320807964" lon="8.01569907926">
        <ele>1316.7</ele>
        <time>2011-04-25T00:05:28Z</time>
      </trkpt><trkpt lat="47.8319351189" lon="8.01568684168">
        <ele>1313.8</ele>
        <time>2011-04-25T00:05:46Z</time>
      </trkpt><trkpt lat="47.8318155929" lon="8.01575104706">
        <ele>1311.4</ele>
        <time>2011-04-25T00:06:02Z</time>
      </trkpt><trkpt lat="47.8316751122" lon="8.01574576646">
        <ele>1309.5</ele>
        <time>2011-04-25T00:06:20Z</time>
      </trkpt><trkpt lat="47.8316566721" lon="8.01567058079">
        <ele>1309</ele>
        <time>2011-04-25T00:06:26Z</time>
      </trkpt><trkpt lat="47.8316953965" lon="8.01551853307">
        <ele>1307.5</ele>
        <time>2011-04-25T00:06:40Z</time>
      </trkpt><trkpt lat="47.8317114897" lon="8.01548483782">
        <ele>1307</ele>
        <time>2011-04-25T00:06:43Z</time>
      </trkpt><trkpt lat="47.8317505494" lon="8.01528501324">
        <ele>1304.2</ele>
        <time>2011-04-25T00:07:01Z</time>
      </trkpt><trkpt lat="47.8316927981" lon="8.01519029774">
        <ele>1301.8</ele>
        <time>2011-04-25T00:07:12Z</time>
      </trkpt><trkpt lat="47.8316513915" lon="8.01507228054">
        <ele>1299.8</ele>
        <time>2011-04-25T00:07:23Z</time>
      </trkpt><trkpt lat="47.8317269962" lon="8.01488729194">
        <ele>1297</ele>
        <time>2011-04-25T00:07:41Z</time>
      </trkpt><trkpt lat="47.8317360487" lon="8.01463491283">
        <ele>1295</ele>
        <time>2011-04-25T00:08:02Z</time>
      </trkpt><trkpt lat="47.8317254875" lon="8.01445344463">
        <ele>1292.1</ele>
        <time>2011-04-25T00:08:17Z</time>
      </trkpt><trkpt lat="47.8316892777" lon="8.01422361284">
        <ele>1289.7</ele>
        <time>2011-04-25T00:08:37Z</time>
      </trkpt><trkpt lat="47.8317088075" lon="8.01404708996">
        <ele>1286.9</ele>
        <time>2011-04-25T00:08:52Z</time>
      </trkpt><trkpt lat="47.8317666426" lon="8.01387660205">
        <ele>1284.5</ele>
        <time>2011-04-25T00:09:08Z</time>
      </trkpt><trkpt lat="47.8317907825" lon="8.01384558901">
        <ele>1284.5</ele>
        <time>2011-04-25T00:09:12Z</time>
      </trkpt><trkpt lat="47.8317065444" lon="8.01383594982">
        <ele>1282.1</ele>
        <time>2011-04-25T00:09:22Z</time>
      </trkpt><trkpt lat="47.8316974919" lon="8.01374852657">
        <ele>1279.2</ele>
        <time>2011-04-25T00:09:30Z</time>
      </trkpt><trkpt lat="47.8317592666" lon="8.01355976611">
        <ele>1276.3</ele>
        <time>2011-04-25T00:09:47Z</time>
      </trkpt><trkpt lat="47.8316967376" lon="8.01360050216">
        <ele>1275.3</ele>
        <time>2011-04-25T00:09:56Z</time>
      </trkpt><trkpt lat="47.8316056263" lon="8.01364970393">
        <ele>1274.8</ele>
        <time>2011-04-25T00:10:08Z</time>
      </trkpt><trkpt lat="47.8315860964" lon="8.01367049105">
        <ele>1274.8</ele>
        <time>2011-04-25T00:10:11Z</time>
      </trkpt><trkpt lat="47.8314678278" lon="8.01383025013">
        <ele>1272.9</ele>
        <time>2011-04-25T00:10:31Z</time>
      </trkpt><trkpt lat="47.8314420115" lon="8.01382991485">
        <ele>1272.4</ele>
        <time>2011-04-25T00:10:34Z</time>
      </trkpt><trkpt lat="47.8314045444" lon="8.01389445551">
        <ele>1271</ele>
        <time>2011-04-25T00:10:41Z</time>
      </trkpt><trkpt lat="47.8313076496" lon="8.01393770613">
        <ele>1267.6</ele>
        <time>2011-04-25T00:10:54Z</time>
      </trkpt><trkpt lat="47.8312072344" lon="8.01402563229">
        <ele>1264.8</ele>
        <time>2011-04-25T00:11:08Z</time>
      </trkpt><trkpt lat="47.8310709447" lon="8.01415043883">
        <ele>1261.4</ele>
        <time>2011-04-25T00:11:28Z</time>
      </trkpt><trkpt lat="47.8310019616" lon="8.01420156844">
        <ele>1258.5</ele>
        <time>2011-04-25T00:11:38Z</time>
      </trkpt><trkpt lat="47.830898026" lon="8.01428304054">
        <ele>1255.1</ele>
        <time>2011-04-25T00:11:52Z</time>
      </trkpt><trkpt lat="47.8308060765" lon="8.01433291286">
        <ele>1252.7</ele>
        <time>2011-04-25T00:12:05Z</time>
      </trkpt><trkpt lat="47.8307723813" lon="8.01441840827">
        <ele>1251.3</ele>
        <time>2011-04-25T00:12:13Z</time>
      </trkpt><trkpt lat="47.8307472356" lon="8.01446937025">
        <ele>1250.8</ele>
        <time>2011-04-25T00:12:18Z</time>
      </trkpt><trkpt lat="47.8307028953" lon="8.01468964666">
        <ele>1247.4</ele>
        <time>2011-04-25T00:12:37Z</time>
      </trkpt><trkpt lat="47.8306132928" lon="8.01486030221">
        <ele>1244.6</ele>
        <time>2011-04-25T00:12:55Z</time>
      </trkpt><trkpt lat="47.8304943535" lon="8.01512776874">
        <ele>1241.7</ele>
        <time>2011-04-25T00:13:22Z</time>
      </trkpt><trkpt lat="47.8303576447" lon="8.01534821279">
        <ele>1240.2</ele>
        <time>2011-04-25T00:13:47Z</time>
      </trkpt><trkpt lat="47.8302818723" lon="8.01544100046">
        <ele>1240.7</ele>
        <time>2011-04-25T00:14:00Z</time>
      </trkpt><trkpt lat="47.830172237" lon="8.01558508538">
        <ele>1239.8</ele>
        <time>2011-04-25T00:14:18Z</time>
      </trkpt><trkpt lat="47.8299671318" lon="8.01563479006">
        <ele>1238.3</ele>
        <time>2011-04-25T00:14:44Z</time>
      </trkpt><trkpt lat="47.8298025113" lon="8.0158512108">
        <ele>1236.9</ele>
        <time>2011-04-25T00:15:11Z</time>
      </trkpt><trkpt lat="47.8297145851" lon="8.01588490605">
        <ele>1235.9</ele>
        <time>2011-04-25T00:15:22Z</time>
      </trkpt><trkpt lat="47.8296499606" lon="8.01587451249">
        <ele>1234.5</ele>
        <time>2011-04-25T00:15:30Z</time>
      </trkpt><trkpt lat="47.8294275887" lon="8.01599638537">
        <ele>1231.1</ele>
        <time>2011-04-25T00:16:00Z</time>
      </trkpt><trkpt lat="47.8293324541" lon="8.01608674228">
        <ele>1228.7</ele>
        <time>2011-04-25T00:16:14Z</time>
      </trkpt><trkpt lat="47.8292184602" lon="8.01616511308">
        <ele>1225.3</ele>
        <time>2011-04-25T00:16:30Z</time>
      </trkpt><trkpt lat="47.8291068971" lon="8.01624859683">
        <ele>1222.5</ele>
        <time>2011-04-25T00:16:45Z</time>
      </trkpt><trkpt lat="47.8290638141" lon="8.0163136404">
        <ele>1221.5</ele>
        <time>2011-04-25T00:16:53Z</time>
      </trkpt><trkpt lat="47.8290431947" lon="8.0163396243">
        <ele>1221</ele>
        <time>2011-04-25T00:16:56Z</time>
      </trkpt><trkpt lat="47.8289433662" lon="8.01646510139">
        <ele>1219.1</ele>
        <time>2011-04-25T00:17:13Z</time>
      </trkpt><trkpt lat="47.8289375827" lon="8.01647750661">
        <ele>1219.1</ele>
        <time>2011-04-25T00:17:14Z</time>
      </trkpt><trkpt lat="47.8289004508" lon="8.0166197475">
        <ele>1217.6</ele>
        <time>2011-04-25T00:17:27Z</time>
      </trkpt><trkpt lat="47.8288079146" lon="8.01662972197">
        <ele>1216.7</ele>
        <time>2011-04-25T00:17:38Z</time>
      </trkpt><trkpt lat="47.8287494928" lon="8.01664539613">
        <ele>1216.2</ele>
        <time>2011-04-25T00:17:46Z</time>
      </trkpt><trkpt lat="47.8287315555" lon="8.01666249521">
        <ele>1215.7</ele>
        <time>2011-04-25T00:17:48Z</time>
      </trkpt><trkpt lat="47.8286006302" lon="8.01672569476">
        <ele>1214.3</ele>
        <time>2011-04-25T00:18:05Z</time>
      </trkpt><trkpt lat="47.8285139613" lon="8.01682879217">
        <ele>1212.8</ele>
        <time>2011-04-25T00:18:19Z</time>
      </trkpt><trkpt lat="47.8283826169" lon="8.01689308137">
        <ele>1210</ele>
        <time>2011-04-25T00:18:36Z</time>
      </trkpt><trkpt lat="47.8282241151" lon="8.01694194786">
        <ele>1206.6</ele>
        <time>2011-04-25T00:18:57Z</time>
      </trkpt><trkpt lat="47.8280299902" lon="8.0170169659">
        <ele>1203.2</ele>
        <time>2011-04-25T00:19:21Z</time>
      </trkpt><trkpt lat="47.8279565647" lon="8.01710430533">
        <ele>1201.8</ele>
        <time>2011-04-25T00:19:33Z</time>
      </trkpt><trkpt lat="47.8278499469" lon="8.01713163033">
        <ele>1199.9</ele>
        <time>2011-04-25T00:19:47Z</time>
      </trkpt><trkpt lat="47.8277041856" lon="8.01722978242">
        <ele>1197</ele>
        <time>2011-04-25T00:20:07Z</time>
      </trkpt><trkpt lat="47.8276881762" lon="8.01727051847">
        <ele>1197</ele>
        <time>2011-04-25T00:20:11Z</time>
      </trkpt><trkpt lat="47.8275946341" lon="8.01735324785">
        <ele>1194.1</ele>
        <time>2011-04-25T00:20:24Z</time>
      </trkpt><trkpt lat="47.8275230527" lon="8.01741812378">
        <ele>1192.2</ele>
        <time>2011-04-25T00:20:35Z</time>
      </trkpt><trkpt lat="47.8274341207" lon="8.01750688814">
        <ele>1189.8</ele>
        <time>2011-04-25T00:20:48Z</time>
      </trkpt><trkpt lat="47.8274188656" lon="8.0175172817">
        <ele>1189.3</ele>
        <time>2011-04-25T00:20:50Z</time>
      </trkpt><trkpt lat="47.8273257427" lon="8.01756271161">
        <ele>1185.9</ele>
        <time>2011-04-25T00:21:02Z</time>
      </trkpt><trkpt lat="47.8272166103" lon="8.01766103134">
        <ele>1183</ele>
        <time>2011-04-25T00:21:18Z</time>
      </trkpt><trkpt lat="47.8271028679" lon="8.0177348759">
        <ele>1180.2</ele>
        <time>2011-04-25T00:21:34Z</time>
      </trkpt><trkpt lat="47.8270069789" lon="8.0178735964">
        <ele>1177.8</ele>
        <time>2011-04-25T00:21:50Z</time>
      </trkpt><trkpt lat="47.8269074857" lon="8.0179823935">
        <ele>1174.9</ele>
        <time>2011-04-25T00:22:06Z</time>
      </trkpt><trkpt lat="47.8268351499" lon="8.01820845343">
        <ele>1171.5</ele>
        <time>2011-04-25T00:22:27Z</time>
      </trkpt><trkpt lat="47.826769352" lon="8.01831498742">
        <ele>1169.1</ele>
        <time>2011-04-25T00:22:39Z</time>
      </trkpt><trkpt lat="47.826738758" lon="8.0183858145">
        <ele>1167.7</ele>
        <time>2011-04-25T00:22:46Z</time>
      </trkpt><trkpt lat="47.8266551066" lon="8.01852621138">
        <ele>1164.3</ele>
        <time>2011-04-25T00:23:01Z</time>
      </trkpt><trkpt lat="47.8265728801" lon="8.0185540393">
        <ele>1162.4</ele>
        <time>2011-04-25T00:23:12Z</time>
      </trkpt><trkpt lat="47.8265672643" lon="8.01855680533">
        <ele>1162.4</ele>
        <time>2011-04-25T00:23:13Z</time>
      </trkpt><trkpt lat="47.8265251871" lon="8.01840484142">
        <ele>1160.4</ele>
        <time>2011-04-25T00:23:26Z</time>
      </trkpt><trkpt lat="47.826506244" lon="8.01832186058">
        <ele>1160</ele>
        <time>2011-04-25T00:23:34Z</time>
      </trkpt><trkpt lat="47.8264212515" lon="8.01800846122">
        <ele>1156.6</ele>
        <time>2011-04-25T00:24:02Z</time>
      </trkpt><trkpt lat="47.8263919987" lon="8.01787443459">
        <ele>1155.2</ele>
        <time>2011-04-25T00:24:14Z</time>
      </trkpt><trkpt lat="47.8264059965" lon="8.01769623533">
        <ele>1152.8</ele>
        <time>2011-04-25T00:24:29Z</time>
      </trkpt><trkpt lat="47.8263761569" lon="8.0174789764">
        <ele>1150.8</ele>
        <time>2011-04-25T00:24:47Z</time>
      </trkpt><trkpt lat="47.8263651766" lon="8.01739591174">
        <ele>1149.9</ele>
        <time>2011-04-25T00:24:54Z</time>
      </trkpt><trkpt lat="47.8263524361" lon="8.01729868166">
        <ele>1148.9</ele>
        <time>2011-04-25T00:25:03Z</time>
      </trkpt><trkpt lat="47.8263458982" lon="8.01720773801">
        <ele>1148</ele>
        <time>2011-04-25T00:25:10Z</time>
      </trkpt><trkpt lat="47.8263498377" lon="8.01716373302">
        <ele>1147.5</ele>
        <time>2011-04-25T00:25:14Z</time>
      </trkpt><trkpt lat="47.826376576" lon="8.01694069058">
        <ele>1145.1</ele>
        <time>2011-04-25T00:25:33Z</time>
      </trkpt><trkpt lat="47.8263993748" lon="8.0167813506">
        <ele>1143.1</ele>
        <time>2011-04-25T00:25:47Z</time>
      </trkpt><trkpt lat="47.8264486603" lon="8.0165527761">
        <ele>1139.8</ele>
        <time>2011-04-25T00:26:07Z</time>
      </trkpt><trkpt lat="47.8264930844" lon="8.016372649">
        <ele>1137.9</ele>
        <time>2011-04-25T00:26:23Z</time>
      </trkpt><trkpt lat="47.8265116923" lon="8.01632395014">
        <ele>1137.9</ele>
        <time>2011-04-25T00:26:27Z</time>
      </trkpt><trkpt lat="47.8265620675" lon="8.01615430042">
        <ele>1135</ele>
        <time>2011-04-25T00:26:43Z</time>
      </trkpt><trkpt lat="47.8266268596" lon="8.01594885997">
        <ele>1133.1</ele>
        <time>2011-04-25T00:27:02Z</time>
      </trkpt><trkpt lat="47.8266948368" lon="8.01578457467">
        <ele>1131.1</ele>
        <time>2011-04-25T00:27:18Z</time>
      </trkpt><trkpt lat="47.8267681785" lon="8.01564652473">
        <ele>1129.7</ele>
        <time>2011-04-25T00:27:33Z</time>
      </trkpt><trkpt lat="47.826867504" lon="8.0154068023">
        <ele>1126.8</ele>
        <time>2011-04-25T00:27:56Z</time>
      </trkpt><trkpt lat="47.8269449528" lon="8.01513908431">
        <ele>1124.9</ele>
        <time>2011-04-25T00:28:21Z</time>
      </trkpt><trkpt lat="47.8270415124" lon="8.01495443098">
        <ele>1122.5</ele>
        <time>2011-04-25T00:28:40Z</time>
      </trkpt><trkpt lat="47.8271253314" lon="8.01473884843">
        <ele>1120.6</ele>
        <time>2011-04-25T00:29:01Z</time>
      </trkpt><trkpt lat="47.827193141" lon="8.01453365944">
        <ele>1118.6</ele>
        <time>2011-04-25T00:29:20Z</time>
      </trkpt><trkpt lat="47.827265393" lon="8.01440323703">
        <ele>1117.2</ele>
        <time>2011-04-25T00:29:34Z</time>
      </trkpt><trkpt lat="47.82736958" lon="8.01417105831">
        <ele>1115.3</ele>
        <time>2011-04-25T00:29:58Z</time>
      </trkpt><trkpt lat="47.8274380602" lon="8.01399260759">
        <ele>1113.3</ele>
        <time>2011-04-25T00:30:15Z</time>
      </trkpt><trkpt lat="47.8274959791" lon="8.01391088404">
        <ele>1112.9</ele>
        <time>2011-04-25T00:30:25Z</time>
      </trkpt><trkpt lat="47.8275120724" lon="8.0138833914">
        <ele>1112.4</ele>
        <time>2011-04-25T00:30:28Z</time>
      </trkpt><trkpt lat="47.827598406" lon="8.01367484964">
        <ele>1111.9</ele>
        <time>2011-04-25T00:30:48Z</time>
      </trkpt><trkpt lat="47.8276909422" lon="8.01341911778">
        <ele>1110.9</ele>
        <time>2011-04-25T00:31:13Z</time>
      </trkpt><trkpt lat="47.8277618531" lon="8.01328618079">
        <ele>1109.5</ele>
        <time>2011-04-25T00:31:27Z</time>
      </trkpt><trkpt lat="47.8278507013" lon="8.01309959963">
        <ele>1108.1</ele>
        <time>2011-04-25T00:31:46Z</time>
      </trkpt><trkpt lat="47.8278625198" lon="8.01305819303">
        <ele>1108.1</ele>
        <time>2011-04-25T00:31:50Z</time>
      </trkpt><trkpt lat="47.8279648628" lon="8.01284571178">
        <ele>1106.1</ele>
        <time>2011-04-25T00:32:12Z</time>
      </trkpt><trkpt lat="47.8280284815" lon="8.01266198047">
        <ele>1103.7</ele>
        <time>2011-04-25T00:32:29Z</time>
      </trkpt><trkpt lat="47.8281615861" lon="8.01238613203">
        <ele>1102.8</ele>
        <time>2011-04-25T00:32:57Z</time>
      </trkpt><trkpt lat="47.8282623366" lon="8.01217465661">
        <ele>1100.8</ele>
        <time>2011-04-25T00:33:19Z</time>
      </trkpt><trkpt lat="47.8282816987" lon="8.01210592501">
        <ele>1100.8</ele>
        <time>2011-04-25T00:33:25Z</time>
      </trkpt><trkpt lat="47.8283045813" lon="8.01200886257">
        <ele>1100.8</ele>
        <time>2011-04-25T00:33:34Z</time>
      </trkpt><trkpt lat="47.8284222633" lon="8.01176654175">
        <ele>1099.4</ele>
        <time>2011-04-25T00:33:59Z</time>
      </trkpt><trkpt lat="47.8285288811" lon="8.01151575521">
        <ele>1098.4</ele>
        <time>2011-04-25T00:34:24Z</time>
      </trkpt><trkpt lat="47.8285931703" lon="8.01135532558">
        <ele>1098</ele>
        <time>2011-04-25T00:34:39Z</time>
      </trkpt><trkpt lat="47.8286823537" lon="8.01098719239">
        <ele>1097.5</ele>
        <time>2011-04-25T00:35:12Z</time>
      </trkpt><trkpt lat="47.8287249338" lon="8.01094402559">
        <ele>1097.5</ele>
        <time>2011-04-25T00:35:19Z</time>
      </trkpt><trkpt lat="47.8286347445" lon="8.01084369421">
        <ele>1096.5</ele>
        <time>2011-04-25T00:35:33Z</time>
      </trkpt><trkpt lat="47.8284523543" lon="8.01067488268">
        <ele>1093.2</ele>
        <time>2011-04-25T00:35:59Z</time>
      </trkpt><trkpt lat="47.8283106163" lon="8.01055979915">
        <ele>1089.8</ele>
        <time>2011-04-25T00:36:19Z</time>
      </trkpt><trkpt lat="47.8282247018" lon="8.0104235094">
        <ele>1086.9</ele>
        <time>2011-04-25T00:36:35Z</time>
      </trkpt><trkpt lat="47.8281073552" lon="8.01032921299">
        <ele>1084</ele>
        <time>2011-04-25T00:36:52Z</time>
      </trkpt><trkpt lat="47.8280805331" lon="8.01030029543">
        <ele>1082.6</ele>
        <time>2011-04-25T00:36:56Z</time>
      </trkpt><trkpt lat="47.827917086" lon="8.01016769372">
        <ele>1079.2</ele>
        <time>2011-04-25T00:37:19Z</time>
      </trkpt><trkpt lat="47.8277631942" lon="8.0100552924">
        <ele>1076.3</ele>
        <time>2011-04-25T00:37:40Z</time>
      </trkpt><trkpt lat="47.8276329394" lon="8.00994331017">
        <ele>1073</ele>
        <time>2011-04-25T00:37:59Z</time>
      </trkpt><trkpt lat="47.8275731765" lon="8.00986519083">
        <ele>1071.5</ele>
        <time>2011-04-25T00:38:09Z</time>
      </trkpt><trkpt lat="47.8274400719" lon="8.00977894105">
        <ele>1068.2</ele>
        <time>2011-04-25T00:38:27Z</time>
      </trkpt><trkpt lat="47.8274327796" lon="8.00976787694">
        <ele>1068.2</ele>
        <time>2011-04-25T00:38:28Z</time>
      </trkpt><trkpt lat="47.8273030277" lon="8.00964407623">
        <ele>1065.3</ele>
        <time>2011-04-25T00:38:48Z</time>
      </trkpt><trkpt lat="47.8272199631" lon="8.00958791748">
        <ele>1063.4</ele>
        <time>2011-04-25T00:38:59Z</time>
      </trkpt><trkpt lat="47.8270752914" lon="8.00942597911">
        <ele>1061</ele>
        <time>2011-04-25T00:39:21Z</time>
      </trkpt><trkpt lat="47.826921232" lon="8.00931827165">
        <ele>1058.1</ele>
        <time>2011-04-25T00:39:43Z</time>
      </trkpt><trkpt lat="47.8267505765" lon="8.00920788199">
        <ele>1055.2</ele>
        <time>2011-04-25T00:40:06Z</time>
      </trkpt><trkpt lat="47.8265730478" lon="8.00905172713">
        <ele>1051.8</ele>
        <time>2011-04-25T00:40:32Z</time>
      </trkpt><trkpt lat="47.8264333215" lon="8.00891359337">
        <ele>1048.9</ele>
        <time>2011-04-25T00:40:52Z</time>
      </trkpt><trkpt lat="47.8263982013" lon="8.00887570716">
        <ele>1048</ele>
        <time>2011-04-25T00:40:58Z</time>
      </trkpt><trkpt lat="47.82623115" lon="8.00890621729">
        <ele>1045.1</ele>
        <time>2011-04-25T00:41:19Z</time>
      </trkpt><trkpt lat="47.8260604944" lon="8.00900160335">
        <ele>1042.2</ele>
        <time>2011-04-25T00:41:41Z</time>
      </trkpt><trkpt lat="47.8259304073" lon="8.00907997414">
        <ele>1039.8</ele>
        <time>2011-04-25T00:41:59Z</time>
      </trkpt><trkpt lat="47.8258830495" lon="8.00911199301">
        <ele>1038.8</ele>
        <time>2011-04-25T00:42:05Z</time>
      </trkpt><trkpt lat="47.8256719094" lon="8.00924031995">
        <ele>1036</ele>
        <time>2011-04-25T00:42:34Z</time>
      </trkpt><trkpt lat="47.8255326021" lon="8.00932087004">
        <ele>1034.5</ele>
        <time>2011-04-25T00:42:52Z</time>
      </trkpt><trkpt lat="47.8254253138" lon="8.00939530134">
        <ele>1034</ele>
        <time>2011-04-25T00:43:07Z</time>
      </trkpt><trkpt lat="47.8253507148" lon="8.00942933187">
        <ele>1032.6</ele>
        <time>2011-04-25T00:43:17Z</time>
      </trkpt><trkpt lat="47.8252592683" lon="8.0095201917">
        <ele>1030.7</ele>
        <time>2011-04-25T00:43:31Z</time>
      </trkpt><trkpt lat="47.8251332045" lon="8.00959118642">
        <ele>1029.2</ele>
        <time>2011-04-25T00:43:47Z</time>
      </trkpt><trkpt lat="47.8250216413" lon="8.00970442593">
        <ele>1027.3</ele>
        <time>2011-04-25T00:44:04Z</time>
      </trkpt><trkpt lat="47.824915275" lon="8.00979805179">
        <ele>1025.4</ele>
        <time>2011-04-25T00:44:20Z</time>
      </trkpt><trkpt lat="47.8247457929" lon="8.0099914223">
        <ele>1022.5</ele>
        <time>2011-04-25T00:44:46Z</time>
      </trkpt><trkpt lat="47.8246901371" lon="8.01007490605">
        <ele>1020.6</ele>
        <time>2011-04-25T00:44:56Z</time>
      </trkpt><trkpt lat="47.8247426916" lon="8.01006183028">
        <ele>1020.6</ele>
        <time>2011-04-25T00:45:03Z</time>
      </trkpt><trkpt lat="47.8246149514" lon="8.01019267179">
        <ele>1017.7</ele>
        <time>2011-04-25T00:45:22Z</time>
      </trkpt><trkpt lat="47.8244580422" lon="8.01038084552">
        <ele>1014.8</ele>
        <time>2011-04-25T00:45:47Z</time>
      </trkpt><trkpt lat="47.8244111035" lon="8.01039375365">
        <ele>1014.3</ele>
        <time>2011-04-25T00:45:53Z</time>
      </trkpt><trkpt lat="47.8242931701" lon="8.01048737951">
        <ele>1013.4</ele>
        <time>2011-04-25T00:46:10Z</time>
      </trkpt><trkpt lat="47.8240168188" lon="8.01037321799">
        <ele>1011.4</ele>
        <time>2011-04-25T00:46:45Z</time>
      </trkpt><trkpt lat="47.8238666989" lon="8.01030297764">
        <ele>1010</ele>
        <time>2011-04-25T00:47:05Z</time>
      </trkpt><trkpt lat="47.823745748" lon="8.0102975294">
        <ele>1008.6</ele>
        <time>2011-04-25T00:47:20Z</time>
      </trkpt><trkpt lat="47.8236389626" lon="8.01035578363">
        <ele>1005.7</ele>
        <time>2011-04-25T00:47:34Z</time>
      </trkpt><trkpt lat="47.8235946223" lon="8.01048830152">
        <ele>1003.3</ele>
        <time>2011-04-25T00:47:47Z</time>
      </trkpt><trkpt lat="47.8235821333" lon="8.01053029485">
        <ele>1002.3</ele>
        <time>2011-04-25T00:47:50Z</time>
      </trkpt><trkpt lat="47.8235055227" lon="8.01064269617">
        <ele>1000.4</ele>
        <time>2011-04-25T00:48:04Z</time>
      </trkpt><trkpt lat="47.8233978152" lon="8.01072056405">
        <ele>998</ele>
        <time>2011-04-25T00:48:19Z</time>
      </trkpt><trkpt lat="47.8232510481" lon="8.01076607779">
        <ele>994.6</ele>
        <time>2011-04-25T00:48:37Z</time>
      </trkpt><trkpt lat="47.8231421672" lon="8.01082056016">
        <ele>992.2</ele>
        <time>2011-04-25T00:48:52Z</time>
      </trkpt><trkpt lat="47.8231318574" lon="8.01081569865">
        <ele>992.2</ele>
        <time>2011-04-25T00:48:53Z</time>
      </trkpt><trkpt lat="47.8229963221" lon="8.01088761538">
        <ele>990.3</ele>
        <time>2011-04-25T00:49:11Z</time>
      </trkpt><trkpt lat="47.8229329549" lon="8.01095140167">
        <ele>989.3</ele>
        <time>2011-04-25T00:49:21Z</time>
      </trkpt><trkpt lat="47.822849052" lon="8.01108651794">
        <ele>986.9</ele>
        <time>2011-04-25T00:49:36Z</time>
      </trkpt><trkpt lat="47.8227291908" lon="8.01119824871">
        <ele>985.5</ele>
        <time>2011-04-25T00:49:54Z</time>
      </trkpt><trkpt lat="47.8226649016" lon="8.01128307357">
        <ele>984</ele>
        <time>2011-04-25T00:50:04Z</time>
      </trkpt><trkpt lat="47.8226205613" lon="8.01138885319">
        <ele>982.1</ele>
        <time>2011-04-25T00:50:15Z</time>
      </trkpt><trkpt lat="47.8226306196" lon="8.01143755205">
        <ele>981.6</ele>
        <time>2011-04-25T00:50:19Z</time>
      </trkpt><trkpt lat="47.822594326" lon="8.01153419539">
        <ele>980.7</ele>
        <time>2011-04-25T00:50:28Z</time>
      </trkpt><trkpt lat="47.8225871176" lon="8.01158021204">
        <ele>980.2</ele>
        <time>2011-04-25T00:50:32Z</time>
      </trkpt><trkpt lat="47.8225887939" lon="8.01161910407">
        <ele>979.7</ele>
        <time>2011-04-25T00:50:35Z</time>
      </trkpt><trkpt lat="47.8225509916" lon="8.01184080541">
        <ele>977.3</ele>
        <time>2011-04-25T00:50:55Z</time>
      </trkpt><trkpt lat="47.8225198109" lon="8.01188413985">
        <ele>976.8</ele>
        <time>2011-04-25T00:51:00Z</time>
      </trkpt><trkpt lat="47.8225352336" lon="8.01194432192">
        <ele>975.9</ele>
        <time>2011-04-25T00:51:05Z</time>
      </trkpt><trkpt lat="47.8224759735" lon="8.01214314066">
        <ele>973.5</ele>
        <time>2011-04-25T00:51:24Z</time>
      </trkpt><trkpt lat="47.8224495705" lon="8.01232435741">
        <ele>971.5</ele>
        <time>2011-04-25T00:51:39Z</time>
      </trkpt><trkpt lat="47.8224402666" lon="8.01241840236">
        <ele>970.6</ele>
        <time>2011-04-25T00:51:47Z</time>
      </trkpt><trkpt lat="47.822395172" lon="8.01262585446">
        <ele>968.7</ele>
        <time>2011-04-25T00:52:05Z</time>
      </trkpt><trkpt lat="47.822354855" lon="8.01280547865">
        <ele>965.8</ele>
        <time>2011-04-25T00:52:21Z</time>
      </trkpt><trkpt lat="47.8222767357" lon="8.01297563128">
        <ele>962.9</ele>
        <time>2011-04-25T00:52:38Z</time>
      </trkpt><trkpt lat="47.8222485725" lon="8.01304033957">
        <ele>961.9</ele>
        <time>2011-04-25T00:52:45Z</time>
      </trkpt><trkpt lat="47.8221826069" lon="8.01317771897">
        <ele>959.5</ele>
        <time>2011-04-25T00:52:59Z</time>
      </trkpt><trkpt lat="47.8220930044" lon="8.01330084912">
        <ele>957.1</ele>
        <time>2011-04-25T00:53:14Z</time>
      </trkpt><trkpt lat="47.821990326" lon="8.01347284578">
        <ele>953.8</ele>
        <time>2011-04-25T00:53:33Z</time>
      </trkpt><trkpt lat="47.8218899947" lon="8.01358650438">
        <ele>950.9</ele>
        <time>2011-04-25T00:53:49Z</time>
      </trkpt><trkpt lat="47.8218045831" lon="8.01372162066">
        <ele>948</ele>
        <time>2011-04-25T00:54:05Z</time>
      </trkpt><trkpt lat="47.8217412997" lon="8.01378875971">
        <ele>946.6</ele>
        <time>2011-04-25T00:54:14Z</time>
      </trkpt><trkpt lat="47.8216983005" lon="8.01386855543">
        <ele>946.1</ele>
        <time>2011-04-25T00:54:23Z</time>
      </trkpt><trkpt lat="47.8216288146" lon="8.0139798671">
        <ele>944.2</ele>
        <time>2011-04-25T00:54:35Z</time>
      </trkpt><trkpt lat="47.8216269705" lon="8.01399470307">
        <ele>943.2</ele>
        <time>2011-04-25T00:54:37Z</time>
      </trkpt><trkpt lat="47.8216247912" lon="8.01403979771">
        <ele>943.2</ele>
        <time>2011-04-25T00:54:41Z</time>
      </trkpt><trkpt lat="47.8215638548" lon="8.01420869306">
        <ele>941.7</ele>
        <time>2011-04-25T00:54:57Z</time>
      </trkpt><trkpt lat="47.8214530461" lon="8.01436627284">
        <ele>940.3</ele>
        <time>2011-04-25T00:55:16Z</time>
      </trkpt><trkpt lat="47.8214231227" lon="8.01450993866">
        <ele>939.3</ele>
        <time>2011-04-25T00:55:28Z</time>
      </trkpt><trkpt lat="47.8212744277" lon="8.014624184">
        <ele>938.9</ele>
        <time>2011-04-25T00:55:49Z</time>
      </trkpt><trkpt lat="47.8212744277" lon="8.01469928585">
        <ele>938.4</ele>
        <time>2011-04-25T00:55:55Z</time>
      </trkpt><trkpt lat="47.8211896867" lon="8.01485535689">
        <ele>937.9</ele>
        <time>2011-04-25T00:56:12Z</time>
      </trkpt><trkpt lat="47.8211688995" lon="8.01493959501">
        <ele>937.4</ele>
        <time>2011-04-25T00:56:20Z</time>
      </trkpt><trkpt lat="47.8210894391" lon="8.01517068408">
        <ele>936.5</ele>
        <time>2011-04-25T00:56:41Z</time>
      </trkpt><trkpt lat="47.8210833203" lon="8.01518250257">
        <ele>936</ele>
        <time>2011-04-25T00:56:43Z</time>
      </trkpt><trkpt lat="47.8209348768" lon="8.01536782645">
        <ele>935.5</ele>
        <time>2011-04-25T00:57:07Z</time>
      </trkpt><trkpt lat="47.8208261635" lon="8.01550336182">
        <ele>934.1</ele>
        <time>2011-04-25T00:57:24Z</time>
      </trkpt><trkpt lat="47.82077034" lon="8.01576286554">
        <ele>933.6</ele>
        <time>2011-04-25T00:57:47Z</time>
      </trkpt><trkpt lat="47.8207498044" lon="8.01582539454">
        <ele>932.6</ele>
        <time>2011-04-25T00:57:53Z</time>
      </trkpt><trkpt lat="47.8206550889" lon="8.0159688089">
        <ele>931.7</ele>
        <time>2011-04-25T00:58:10Z</time>
      </trkpt><trkpt lat="47.820562385" lon="8.01612714306">
        <ele>931.2</ele>
        <time>2011-04-25T00:58:27Z</time>
      </trkpt><trkpt lat="47.8205037117" lon="8.01623183303">
        <ele>930.7</ele>
        <time>2011-04-25T00:58:39Z</time>
      </trkpt><trkpt lat="47.820360465" lon="8.01630442031">
        <ele>929.7</ele>
        <time>2011-04-25T00:58:58Z</time>
      </trkpt><trkpt lat="47.8201813437" lon="8.01630978473">
        <ele>929.3</ele>
        <time>2011-04-25T00:59:20Z</time>
      </trkpt><trkpt lat="47.8201235086" lon="8.01630760543">
        <ele>929.3</ele>
        <time>2011-04-25T00:59:27Z</time>
      </trkpt><trkpt lat="47.8200323973" lon="8.01629461348">
        <ele>928.3</ele>
        <time>2011-04-25T00:59:39Z</time>
      </trkpt><trkpt lat="47.820000127" lon="8.01629964262">
        <ele>928.8</ele>
        <time>2011-04-25T00:59:43Z</time>
      </trkpt><trkpt lat="47.8199085128" lon="8.0163122993">
        <ele>927.8</ele>
        <time>2011-04-25T00:59:54Z</time>
      </trkpt><trkpt lat="47.8197503462" lon="8.01634021103">
        <ele>927.3</ele>
        <time>2011-04-25T01:00:14Z</time>
      </trkpt><trkpt lat="47.8196870629" lon="8.01634440199">
        <ele>927.3</ele>
        <time>2011-04-25T01:00:22Z</time>
      </trkpt><trkpt lat="47.8194471728" lon="8.01652100869">
        <ele>926.4</ele>
        <time>2011-04-25T01:00:55Z</time>
      </trkpt><trkpt lat="47.8192723263" lon="8.01657565869">
        <ele>925.4</ele>
        <time>2011-04-25T01:01:17Z</time>
      </trkpt><trkpt lat="47.8191956319" lon="8.01663257182">
        <ele>924.9</ele>
        <time>2011-04-25T01:01:28Z</time>
      </trkpt><trkpt lat="47.8190587554" lon="8.01669929177">
        <ele>924.9</ele>
        <time>2011-04-25T01:01:46Z</time>
      </trkpt><trkpt lat="47.8188945539" lon="8.0167518463">
        <ele>924.4</ele>
        <time>2011-04-25T01:02:07Z</time>
      </trkpt><trkpt lat="47.8187077213" lon="8.01684396341">
        <ele>924</ele>
        <time>2011-04-25T01:02:31Z</time>
      </trkpt><trkpt lat="47.8185228165" lon="8.01693297923">
        <ele>923.5</ele>
        <time>2011-04-25T01:02:56Z</time>
      </trkpt><trkpt lat="47.8184394166" lon="8.01696332172">
        <ele>923</ele>
        <time>2011-04-25T01:03:06Z</time>
      </trkpt><trkpt lat="47.8182763048" lon="8.0170200672">
        <ele>922</ele>
        <time>2011-04-25T01:03:27Z</time>
      </trkpt><trkpt lat="47.8180931602" lon="8.01716440357">
        <ele>922</ele>
        <time>2011-04-25T01:03:53Z</time>
      </trkpt><trkpt lat="47.8179675993" lon="8.0171720311">
        <ele>921.6</ele>
        <time>2011-04-25T01:04:09Z</time>
      </trkpt><trkpt lat="47.8177703731" lon="8.01719063893">
        <ele>921.1</ele>
        <time>2011-04-25T01:04:33Z</time>
      </trkpt><trkpt lat="47.8175483365" lon="8.01732500084">
        <ele>920.6</ele>
        <time>2011-04-25T01:05:03Z</time>
      </trkpt><trkpt lat="47.8173467517" lon="8.01738057286">
        <ele>920.1</ele>
        <time>2011-04-25T01:05:29Z</time>
      </trkpt><trkpt lat="47.8171785269" lon="8.01747294143">
        <ele>920.1</ele>
        <time>2011-04-25T01:05:51Z</time>
      </trkpt><trkpt lat="47.817023294" lon="8.01752708852">
        <ele>919.6</ele>
        <time>2011-04-25T01:06:11Z</time>
      </trkpt><trkpt lat="47.8168832324" lon="8.017582912">
        <ele>919.6</ele>
        <time>2011-04-25T01:06:29Z</time>
      </trkpt><trkpt lat="47.8167508822" lon="8.01765223034">
        <ele>919.2</ele>
        <time>2011-04-25T01:06:46Z</time>
      </trkpt><trkpt lat="47.8166150115" lon="8.0177040305">
        <ele>919.2</ele>
        <time>2011-04-25T01:07:04Z</time>
      </trkpt><trkpt lat="47.8164273407" lon="8.01783562638">
        <ele>918.2</ele>
        <time>2011-04-25T01:07:30Z</time>
      </trkpt><trkpt lat="47.816226678" lon="8.01794609986">
        <ele>918.2</ele>
        <time>2011-04-25T01:07:56Z</time>
      </trkpt><trkpt lat="47.8160373308" lon="8.01809269935">
        <ele>918.2</ele>
        <time>2011-04-25T01:08:23Z</time>
      </trkpt><trkpt lat="47.8158928268" lon="8.01816872321">
        <ele>919.2</ele>
        <time>2011-04-25T01:08:42Z</time>
      </trkpt><trkpt lat="47.8156281263" lon="8.01825229079">
        <ele>917.2</ele>
        <time>2011-04-25T01:09:16Z</time>
      </trkpt><trkpt lat="47.8154397849" lon="8.01819688641">
        <ele>915.8</ele>
        <time>2011-04-25T01:09:40Z</time>
      </trkpt><trkpt lat="47.8152390383" lon="8.01816889085">
        <ele>915.8</ele>
        <time>2011-04-25T01:10:05Z</time>
      </trkpt><trkpt lat="47.8150124755" lon="8.01818934269">
        <ele>915.3</ele>
        <time>2011-04-25T01:10:33Z</time>
      </trkpt><trkpt lat="47.8147626948" lon="8.01815757528">
        <ele>915.3</ele>
        <time>2011-04-25T01:11:04Z</time>
      </trkpt><trkpt lat="47.8146149218" lon="8.01807015203">
        <ele>914.8</ele>
        <time>2011-04-25T01:11:24Z</time>
      </trkpt><trkpt lat="47.8145005088" lon="8.01803226583">
        <ele>914.8</ele>
        <time>2011-04-25T01:11:39Z</time>
      </trkpt><trkpt lat="47.8143792227" lon="8.01795691252">
        <ele>914.4</ele>
        <time>2011-04-25T01:11:55Z</time>
      </trkpt><trkpt lat="47.8142218105" lon="8.01792665385">
        <ele>914.8</ele>
        <time>2011-04-25T01:12:15Z</time>
      </trkpt><trkpt lat="47.8141593654" lon="8.01799840294">
        <ele>914.8</ele>
        <time>2011-04-25T01:12:25Z</time>
      </trkpt><trkpt lat="47.8139721137" lon="8.01813536324">
        <ele>915.3</ele>
        <time>2011-04-25T01:12:51Z</time>
      </trkpt><trkpt lat="47.8137975186" lon="8.01825815812">
        <ele>915.3</ele>
        <time>2011-04-25T01:13:15Z</time>
      </trkpt><trkpt lat="47.8136182297" lon="8.01839981228">
        <ele>915.3</ele>
        <time>2011-04-25T01:13:40Z</time>
      </trkpt><trkpt lat="47.8134316485" lon="8.01842437126">
        <ele>915.3</ele>
        <time>2011-04-25T01:14:03Z</time>
      </trkpt><trkpt lat="47.8133850452" lon="8.01839595661">
        <ele>915.3</ele>
        <time>2011-04-25T01:14:10Z</time>
      </trkpt><trkpt lat="47.813357804" lon="8.01842730492">
        <ele>914.8</ele>
        <time>2011-04-25T01:14:14Z</time>
      </trkpt><trkpt lat="47.8132324945" lon="8.01851003431">
        <ele>914.8</ele>
        <time>2011-04-25T01:14:31Z</time>
      </trkpt><trkpt lat="47.8130308259" lon="8.01860768348">
        <ele>914.4</ele>
        <time>2011-04-25T01:14:57Z</time>
      </trkpt><trkpt lat="47.8128453344" lon="8.01868664101">
        <ele>914.4</ele>
        <time>2011-04-25T01:15:21Z</time>
      </trkpt><trkpt lat="47.8126753494" lon="8.01875570789">
        <ele>914.8</ele>
        <time>2011-04-25T01:15:43Z</time>
      </trkpt><trkpt lat="47.8125188593" lon="8.01881639287">
        <ele>915.3</ele>
        <time>2011-04-25T01:16:04Z</time>
      </trkpt><trkpt lat="47.8123422526" lon="8.01886316389">
        <ele>915.3</ele>
        <time>2011-04-25T01:16:26Z</time>
      </trkpt><trkpt lat="47.812190121" lon="8.01888244227">
        <ele>915.8</ele>
        <time>2011-04-25T01:16:45Z</time>
      </trkpt><trkpt lat="47.8120210581" lon="8.01888646558">
        <ele>916.3</ele>
        <time>2011-04-25T01:17:06Z</time>
      </trkpt><trkpt lat="47.8119465429" lon="8.01889618859">
        <ele>916.3</ele>
        <time>2011-04-25T01:17:15Z</time>
      </trkpt><trkpt lat="47.811827017" lon="8.0190230906">
        <ele>916.3</ele>
        <time>2011-04-25T01:17:34Z</time>
      </trkpt><trkpt lat="47.8117523342" lon="8.01917270757">
        <ele>916.8</ele>
        <time>2011-04-25T01:17:49Z</time>
      </trkpt><trkpt lat="47.8117736243" lon="8.01927907392">
        <ele>917.7</ele>
        <time>2011-04-25T01:17:59Z</time>
      </trkpt><trkpt lat="47.8117295355" lon="8.01937965676">
        <ele>918.2</ele>
        <time>2011-04-25T01:18:09Z</time>
      </trkpt><trkpt lat="47.8117030486" lon="8.01957269199">
        <ele>918.7</ele>
        <time>2011-04-25T01:18:25Z</time>
      </trkpt><trkpt lat="47.8116359934" lon="8.01959850825">
        <ele>918.2</ele>
        <time>2011-04-25T01:18:34Z</time>
      </trkpt><trkpt lat="47.8116480634" lon="8.02009832114">
        <ele>918.2</ele>
        <time>2011-04-25T01:19:16Z</time>
      </trkpt><trkpt lat="47.8115359135" lon="8.02022337914">
        <ele>918.2</ele>
        <time>2011-04-25T01:19:33Z</time>
      </trkpt><trkpt lat="47.8114176448" lon="8.02026520483">
        <ele>918.7</ele>
        <time>2011-04-25T01:19:48Z</time>
      </trkpt><trkpt lat="47.8112615738" lon="8.02033586428">
        <ele>919.6</ele>
        <time>2011-04-25T01:20:08Z</time>
      </trkpt><trkpt lat="47.8112108633" lon="8.0204289034">
        <ele>920.6</ele>
        <time>2011-04-25T01:20:18Z</time>
      </trkpt><trkpt lat="47.8110717237" lon="8.02053937688">
        <ele>921.1</ele>
        <time>2011-04-25T01:20:38Z</time>
      </trkpt><trkpt lat="47.8110525291" lon="8.02058514208">
        <ele>921.1</ele>
        <time>2011-04-25T01:20:43Z</time>
      </trkpt><trkpt lat="47.8109826241" lon="8.02077851258">
        <ele>922.5</ele>
        <time>2011-04-25T01:21:01Z</time>
      </trkpt><trkpt lat="47.8109327517" lon="8.02093131468">
        <ele>923.5</ele>
        <time>2011-04-25T01:21:15Z</time>
      </trkpt><trkpt lat="47.8108625114" lon="8.02110456862">
        <ele>923</ele>
        <time>2011-04-25T01:21:32Z</time>
      </trkpt><trkpt lat="47.8108199313" lon="8.02122132853">
        <ele>922.5</ele>
        <time>2011-04-25T01:21:43Z</time>
      </trkpt><trkpt lat="47.8107977193" lon="8.02124127746">
        <ele>922.5</ele>
        <time>2011-04-25T01:21:46Z</time>
      </trkpt><trkpt lat="47.8106979746" lon="8.02147052251">
        <ele>921.1</ele>
        <time>2011-04-25T01:22:09Z</time>
      </trkpt><trkpt lat="47.8106066119" lon="8.02175693214">
        <ele>919.2</ele>
        <time>2011-04-25T01:22:36Z</time>
      </trkpt><trkpt lat="47.810561182" lon="8.02186975256">
        <ele>918.7</ele>
        <time>2011-04-25T01:22:47Z</time>
      </trkpt><trkpt lat="47.8105546441" lon="8.02204091102">
        <ele>918.2</ele>
        <time>2011-04-25T01:23:01Z</time>
      </trkpt><trkpt lat="47.8105318453" lon="8.02209732123">
        <ele>917.7</ele>
        <time>2011-04-25T01:23:07Z</time>
      </trkpt><trkpt lat="47.8105059452" lon="8.02212473005">
        <ele>917.7</ele>
        <time>2011-04-25T01:23:11Z</time>
      </trkpt><trkpt lat="47.8104793746" lon="8.0222711619">
        <ele>917.2</ele>
        <time>2011-04-25T01:23:23Z</time>
      </trkpt><trkpt lat="47.8103695717" lon="8.02251909859">
        <ele>916.8</ele>
        <time>2011-04-25T01:23:48Z</time>
      </trkpt><trkpt lat="47.8102615289" lon="8.02281187847">
        <ele>916.3</ele>
        <time>2011-04-25T01:24:16Z</time>
      </trkpt><trkpt lat="47.8102343716" lon="8.02305478603">
        <ele>916.3</ele>
        <time>2011-04-25T01:24:37Z</time>
      </trkpt><trkpt lat="47.8102103155" lon="8.02311798558">
        <ele>916.3</ele>
        <time>2011-04-25T01:24:43Z</time>
      </trkpt><trkpt lat="47.8101649694" lon="8.02323399112">
        <ele>916.3</ele>
        <time>2011-04-25T01:24:54Z</time>
      </trkpt><trkpt lat="47.8100421745" lon="8.02347153425">
        <ele>915.3</ele>
        <time>2011-04-25T01:25:19Z</time>
      </trkpt><trkpt lat="47.8098972514" lon="8.02369910292">
        <ele>914.8</ele>
        <time>2011-04-25T01:25:45Z</time>
      </trkpt><trkpt lat="47.809738582" lon="8.02376272157">
        <ele>914.4</ele>
        <time>2011-04-25T01:26:06Z</time>
      </trkpt><trkpt lat="47.8097311221" lon="8.02371636964">
        <ele>914.4</ele>
        <time>2011-04-25T01:26:10Z</time>
      </trkpt><trkpt lat="47.8096597083" lon="8.02366624586">
        <ele>914.4</ele>
        <time>2011-04-25T01:26:20Z</time>
      </trkpt><trkpt lat="47.8095439542" lon="8.02391627803">
        <ele>912.4</ele>
        <time>2011-04-25T01:26:45Z</time>
      </trkpt><trkpt lat="47.809407413" lon="8.02401878871">
        <ele>911.5</ele>
        <time>2011-04-25T01:27:04Z</time>
      </trkpt><trkpt lat="47.8093302995" lon="8.02414099686">
        <ele>911</ele>
        <time>2011-04-25T01:27:18Z</time>
      </trkpt><trkpt lat="47.8093489911" lon="8.02418458275">
        <ele>910</ele>
        <time>2011-04-25T01:27:23Z</time>
      </trkpt><trkpt lat="47.8093608096" lon="8.0242063757">
        <ele>910</ele>
        <time>2011-04-25T01:27:25Z</time>
      </trkpt><trkpt lat="47.8094215784" lon="8.02419329993">
        <ele>909.5</ele>
        <time>2011-04-25T01:27:32Z</time>
      </trkpt><trkpt lat="47.8096604627" lon="8.02416304126">
        <ele>908.1</ele>
        <time>2011-04-25T01:28:02Z</time>
      </trkpt><trkpt lat="47.8097039647" lon="8.02417754196">
        <ele>908.1</ele>
        <time>2011-04-25T01:28:08Z</time>
      </trkpt><trkpt lat="47.8097493108" lon="8.02437736653">
        <ele>907.1</ele>
        <time>2011-04-25T01:28:26Z</time>
      </trkpt><trkpt lat="47.8097241651" lon="8.02466654219">
        <ele>907.1</ele>
        <time>2011-04-25T01:28:50Z</time>
      </trkpt><trkpt lat="47.8097171243" lon="8.02472420968">
        <ele>907.1</ele>
        <time>2011-04-25T01:28:55Z</time>
      </trkpt><trkpt lat="47.8097124305" lon="8.02501087077">
        <ele>906.7</ele>
        <time>2011-04-25T01:29:19Z</time>
      </trkpt><trkpt lat="47.8097063117" lon="8.02535771392">
        <ele>906.2</ele>
        <time>2011-04-25T01:29:48Z</time>
      </trkpt><trkpt lat="47.8097636439" lon="8.02539920434">
        <ele>905.7</ele>
        <time>2011-04-25T01:29:56Z</time>
      </trkpt><trkpt lat="47.8097206447" lon="8.02554370835">
        <ele>905.7</ele>
        <time>2011-04-25T01:30:09Z</time>
      </trkpt><trkpt lat="47.8096221574" lon="8.02585585043">
        <ele>905.2</ele>
        <time>2011-04-25T01:30:38Z</time>
      </trkpt><trkpt lat="47.8095950838" lon="8.0260023661">
        <ele>905.2</ele>
        <time>2011-04-25T01:30:51Z</time>
      </trkpt><trkpt lat="47.8096053097" lon="8.02610286511">
        <ele>905.2</ele>
        <time>2011-04-25T01:30:59Z</time>
      </trkpt><trkpt lat="47.8095035534" lon="8.02636194974">
        <ele>905.2</ele>
        <time>2011-04-25T01:31:24Z</time>
      </trkpt><trkpt lat="47.8094846103" lon="8.02640729584">
        <ele>905.2</ele>
        <time>2011-04-25T01:31:29Z</time>
      </trkpt><trkpt lat="47.8094626497" lon="8.02645565942">
        <ele>905.2</ele>
        <time>2011-04-25T01:31:34Z</time>
      </trkpt><trkpt lat="47.8093416989" lon="8.02666914649">
        <ele>904.7</ele>
        <time>2011-04-25T01:31:57Z</time>
      </trkpt><trkpt lat="47.8092025593" lon="8.02686276846">
        <ele>904.7</ele>
        <time>2011-04-25T01:32:21Z</time>
      </trkpt><trkpt lat="47.8090613242" lon="8.02691146731">
        <ele>904.3</ele>
        <time>2011-04-25T01:32:39Z</time>
      </trkpt><trkpt lat="47.8090396151" lon="8.02713761106">
        <ele>904.3</ele>
        <time>2011-04-25T01:32:58Z</time>
      </trkpt><trkpt lat="47.8090332448" lon="8.02721723914">
        <ele>904.3</ele>
        <time>2011-04-25T01:33:05Z</time>
      </trkpt><trkpt lat="47.8089949396" lon="8.02749887109">
        <ele>903.8</ele>
        <time>2011-04-25T01:33:29Z</time>
      </trkpt><trkpt lat="47.8088966198" lon="8.02776952274">
        <ele>903.3</ele>
        <time>2011-04-25T01:33:54Z</time>
      </trkpt><trkpt lat="47.8087999765" lon="8.02802684717">
        <ele>903.3</ele>
        <time>2011-04-25T01:34:19Z</time>
      </trkpt><trkpt lat="47.808722863" lon="8.02829347551">
        <ele>902.8</ele>
        <time>2011-04-25T01:34:43Z</time>
      </trkpt><trkpt lat="47.8086234536" lon="8.02851609886">
        <ele>902.8</ele>
        <time>2011-04-25T01:35:06Z</time>
      </trkpt><trkpt lat="47.8085235413" lon="8.02871701308">
        <ele>902.8</ele>
        <time>2011-04-25T01:35:27Z</time>
      </trkpt><trkpt lat="47.8084138222" lon="8.02892387845">
        <ele>902.8</ele>
        <time>2011-04-25T01:35:49Z</time>
      </trkpt><trkpt lat="47.8083048575" lon="8.02911465056">
        <ele>902.8</ele>
        <time>2011-04-25T01:36:10Z</time>
      </trkpt><trkpt lat="47.8082775325" lon="8.02921330556">
        <ele>902.3</ele>
        <time>2011-04-25T01:36:19Z</time>
      </trkpt><trkpt lat="47.8081005905" lon="8.02941304632">
        <ele>902.3</ele>
        <time>2011-04-25T01:36:46Z</time>
      </trkpt><trkpt lat="47.8079274204" lon="8.02955931053">
        <ele>901.4</ele>
        <time>2011-04-25T01:37:11Z</time>
      </trkpt><trkpt lat="47.8077713493" lon="8.02972267382">
        <ele>900.9</ele>
        <time>2011-04-25T01:37:35Z</time>
      </trkpt><trkpt lat="47.8075379971" lon="8.02991352975">
        <ele>900.4</ele>
        <time>2011-04-25T01:38:08Z</time>
      </trkpt><trkpt lat="47.8073525894" lon="8.03003984503">
        <ele>900.9</ele>
        <time>2011-04-25T01:38:33Z</time>
      </trkpt><trkpt lat="47.8071240988" lon="8.03025358357">
        <ele>900.9</ele>
        <time>2011-04-25T01:39:07Z</time>
      </trkpt><trkpt lat="47.8070253599" lon="8.03031410091">
        <ele>900.9</ele>
        <time>2011-04-25T01:39:20Z</time>
      </trkpt><trkpt lat="47.8068162315" lon="8.0304461997">
        <ele>901.4</ele>
        <time>2011-04-25T01:39:49Z</time>
      </trkpt><trkpt lat="47.8066379484" lon="8.03042071871">
        <ele>902.3</ele>
        <time>2011-04-25T01:40:11Z</time>
      </trkpt><trkpt lat="47.8066233639" lon="8.03034326993">
        <ele>902.3</ele>
        <time>2011-04-25T01:40:18Z</time>
      </trkpt><trkpt lat="47.8065243736" lon="8.03005401045">
        <ele>902.8</ele>
        <time>2011-04-25T01:40:45Z</time>
      </trkpt><trkpt lat="47.8064392135" lon="8.02990389057">
        <ele>903.3</ele>
        <time>2011-04-25T01:41:01Z</time>
      </trkpt><trkpt lat="47.8064895887" lon="8.02987472154">
        <ele>903.8</ele>
        <time>2011-04-25T01:41:08Z</time>
      </trkpt></trkseg>
  </trk>
</gpx>